<?xml version="1.0" encoding="UTF-8" standalone="no" ?>
<gpx xmlns="http://www.topografix.com/GPX/1/1" xmlns:xsi="http://www.w3.org/2001/XMLSchema-instance" xsi:schemaLocation="http://www.topografix.com/GPX/1/1 http://www.topografix.com/GPX/1/1/gpx.xsd" version="1.1" creator="VisuGPX - https://www.visugpx.com">
  <metadata>
    <name>Essai collines des bergers</name>
  </metadata>
  <trk>
    <name><![CDATA[Essai collines des bergers_1]]></name>
    <trkseg>
      <trkpt lat="43.56189" lon="5.26406">
        <ele>147</ele>
        <time>2017-02-05T10:20:34Z</time>
      </trkpt>
      <trkpt lat="43.5618" lon="5.26404">
        <ele>146</ele>
        <time>2017-02-05T10:20:38Z</time>
      </trkpt>
      <trkpt lat="43.56172" lon="5.264">
        <ele>144</ele>
        <time>2017-02-05T10:20:42Z</time>
      </trkpt>
      <trkpt lat="43.56189" lon="5.26406">
        <ele>147</ele>
        <time>2017-02-05T10:20:34Z</time>
      </trkpt>
      <trkpt lat="43.56197" lon="5.26408">
        <ele>148</ele>
        <time>2017-02-05T10:20:30Z</time>
      </trkpt>
      <trkpt lat="43.56206" lon="5.2641">
        <ele>149</ele>
        <time>2017-02-05T10:20:26Z</time>
      </trkpt>
      <trkpt lat="43.56216" lon="5.26411">
        <ele>150</ele>
        <time>2017-02-05T10:20:22Z</time>
      </trkpt>
      <trkpt lat="43.56225" lon="5.26412">
        <ele>152</ele>
        <time>2017-02-05T10:20:18Z</time>
      </trkpt>
      <trkpt lat="43.56235" lon="5.26415">
        <ele>153</ele>
        <time>2017-02-05T10:20:14Z</time>
      </trkpt>
      <trkpt lat="43.56244" lon="5.26416">
        <ele>154</ele>
        <time>2017-02-05T10:20:10Z</time>
      </trkpt>
      <trkpt lat="43.56254" lon="5.26418">
        <ele>155</ele>
        <time>2017-02-05T10:20:06Z</time>
      </trkpt>
      <trkpt lat="43.56264" lon="5.2642">
        <ele>157</ele>
        <time>2017-02-05T10:20:02Z</time>
      </trkpt>
      <trkpt lat="43.56274" lon="5.26422">
        <ele>158</ele>
        <time>2017-02-05T10:19:58Z</time>
      </trkpt>
      <trkpt lat="43.56283" lon="5.26423">
        <ele>159</ele>
        <time>2017-02-05T10:19:54Z</time>
      </trkpt>
      <trkpt lat="43.56291" lon="5.26426">
        <ele>160</ele>
        <time>2017-02-05T10:19:50Z</time>
      </trkpt>
      <trkpt lat="43.56301" lon="5.26426">
        <ele>161</ele>
        <time>2017-02-05T10:19:46Z</time>
      </trkpt>
      <trkpt lat="43.56309" lon="5.26428">
        <ele>162</ele>
        <time>2017-02-05T10:19:42Z</time>
      </trkpt>
      <trkpt lat="43.56318" lon="5.2643">
        <ele>163</ele>
        <time>2017-02-05T10:19:38Z</time>
      </trkpt>
      <trkpt lat="43.56327" lon="5.26431">
        <ele>164</ele>
        <time>2017-02-05T10:19:34Z</time>
      </trkpt>
      <trkpt lat="43.56337" lon="5.26433">
        <ele>165</ele>
        <time>2017-02-05T10:19:30Z</time>
      </trkpt>
      <trkpt lat="43.56348" lon="5.26435">
        <ele>166</ele>
        <time>2017-02-05T10:19:26Z</time>
      </trkpt>
      <trkpt lat="43.56354" lon="5.26438">
        <ele>167</ele>
        <time>2017-02-05T10:19:22Z</time>
      </trkpt>
      <trkpt lat="43.56362" lon="5.26439">
        <ele>168</ele>
        <time>2017-02-05T10:19:18Z</time>
      </trkpt>
      <trkpt lat="43.56371" lon="5.26435">
        <ele>169</ele>
        <time>2017-02-05T10:19:14Z</time>
      </trkpt>
      <trkpt lat="43.56379" lon="5.26434">
        <ele>170</ele>
        <time>2017-02-05T10:19:10Z</time>
      </trkpt>
      <trkpt lat="43.56388" lon="5.26433">
        <ele>170</ele>
        <time>2017-02-05T10:19:06Z</time>
      </trkpt>
      <trkpt lat="43.56397" lon="5.26434">
        <ele>171</ele>
        <time>2017-02-05T10:19:02Z</time>
      </trkpt>
      <trkpt lat="43.56406" lon="5.26434">
        <ele>171</ele>
        <time>2017-02-05T10:18:58Z</time>
      </trkpt>
      <trkpt lat="43.56415" lon="5.26431">
        <ele>171</ele>
        <time>2017-02-05T10:18:54Z</time>
      </trkpt>
      <trkpt lat="43.56425" lon="5.26427">
        <ele>172</ele>
        <time>2017-02-05T10:18:50Z</time>
      </trkpt>
      <trkpt lat="43.56435" lon="5.26423">
        <ele>172</ele>
        <time>2017-02-05T10:18:46Z</time>
      </trkpt>
      <trkpt lat="43.56443" lon="5.2642">
        <ele>173</ele>
        <time>2017-02-05T10:18:42Z</time>
      </trkpt>
      <trkpt lat="43.56452" lon="5.26416">
        <ele>173</ele>
        <time>2017-02-05T10:18:38Z</time>
      </trkpt>
      <trkpt lat="43.5646" lon="5.26411">
        <ele>174</ele>
        <time>2017-02-05T10:18:34Z</time>
      </trkpt>
      <trkpt lat="43.56469" lon="5.2641">
        <ele>174</ele>
        <time>2017-02-05T10:18:30Z</time>
      </trkpt>
      <trkpt lat="43.56478" lon="5.26412">
        <ele>174</ele>
        <time>2017-02-05T10:18:26Z</time>
      </trkpt>
      <trkpt lat="43.56488" lon="5.26415">
        <ele>175</ele>
        <time>2017-02-05T10:18:22Z</time>
      </trkpt>
      <trkpt lat="43.56499" lon="5.26413">
        <ele>175</ele>
        <time>2017-02-05T10:18:18Z</time>
      </trkpt>
      <trkpt lat="43.56506" lon="5.26404">
        <ele>175</ele>
        <time>2017-02-05T10:18:14Z</time>
      </trkpt>
      <trkpt lat="43.56502" lon="5.26394">
        <ele>176</ele>
        <time>2017-02-05T10:18:10Z</time>
      </trkpt>
      <trkpt lat="43.56494" lon="5.26388">
        <ele>177</ele>
        <time>2017-02-05T10:18:06Z</time>
      </trkpt>
      <trkpt lat="43.56485" lon="5.26385">
        <ele>177</ele>
        <time>2017-02-05T10:18:02Z</time>
      </trkpt>
      <trkpt lat="43.56477" lon="5.26385">
        <ele>178</ele>
        <time>2017-02-05T10:17:58Z</time>
      </trkpt>
      <trkpt lat="43.56469" lon="5.26386">
        <ele>179</ele>
        <time>2017-02-05T10:17:54Z</time>
      </trkpt>
      <trkpt lat="43.56461" lon="5.26387">
        <ele>180</ele>
        <time>2017-02-05T10:17:50Z</time>
      </trkpt>
      <trkpt lat="43.56453" lon="5.26389">
        <ele>181</ele>
        <time>2017-02-05T10:17:46Z</time>
      </trkpt>
      <trkpt lat="43.56446" lon="5.2639">
        <ele>182</ele>
        <time>2017-02-05T10:17:42Z</time>
      </trkpt>
      <trkpt lat="43.56435" lon="5.26388">
        <ele>183</ele>
        <time>2017-02-05T10:17:38Z</time>
      </trkpt>
      <trkpt lat="43.56428" lon="5.26387">
        <ele>184</ele>
        <time>2017-02-05T10:17:34Z</time>
      </trkpt>
      <trkpt lat="43.56421" lon="5.26379">
        <ele>185</ele>
        <time>2017-02-05T10:17:30Z</time>
      </trkpt>
      <trkpt lat="43.56417" lon="5.26369">
        <ele>186</ele>
        <time>2017-02-05T10:17:26Z</time>
      </trkpt>
      <trkpt lat="43.56416" lon="5.26356">
        <ele>187</ele>
        <time>2017-02-05T10:17:22Z</time>
      </trkpt>
      <trkpt lat="43.56417" lon="5.26345">
        <ele>188</ele>
        <time>2017-02-05T10:17:18Z</time>
      </trkpt>
      <trkpt lat="43.5642" lon="5.26332">
        <ele>189</ele>
        <time>2017-02-05T10:17:14Z</time>
      </trkpt>
      <trkpt lat="43.56424" lon="5.2632">
        <ele>189</ele>
        <time>2017-02-05T10:17:10Z</time>
      </trkpt>
      <trkpt lat="43.56427" lon="5.26309">
        <ele>190</ele>
        <time>2017-02-05T10:17:06Z</time>
      </trkpt>
      <trkpt lat="43.56428" lon="5.26299">
        <ele>191</ele>
        <time>2017-02-05T10:17:02Z</time>
      </trkpt>
      <trkpt lat="43.56431" lon="5.26289">
        <ele>191</ele>
        <time>2017-02-05T10:16:58Z</time>
      </trkpt>
      <trkpt lat="43.5644" lon="5.26284">
        <ele>192</ele>
        <time>2017-02-05T10:16:54Z</time>
      </trkpt>
      <trkpt lat="43.5645" lon="5.26282">
        <ele>193</ele>
        <time>2017-02-05T10:16:50Z</time>
      </trkpt>
      <trkpt lat="43.5646" lon="5.26277">
        <ele>194</ele>
        <time>2017-02-05T10:16:46Z</time>
      </trkpt>
      <trkpt lat="43.56465" lon="5.26271">
        <ele>194</ele>
        <time>2017-02-05T10:16:42Z</time>
      </trkpt>
      <trkpt lat="43.56468" lon="5.26259">
        <ele>195</ele>
        <time>2017-02-05T10:16:38Z</time>
      </trkpt>
      <trkpt lat="43.5647" lon="5.26247">
        <ele>196</ele>
        <time>2017-02-05T10:16:34Z</time>
      </trkpt>
      <trkpt lat="43.56474" lon="5.26237">
        <ele>196</ele>
        <time>2017-02-05T10:16:30Z</time>
      </trkpt>
      <trkpt lat="43.56479" lon="5.26238">
        <ele>197</ele>
        <time>2017-02-05T10:16:26Z</time>
      </trkpt>
      <trkpt lat="43.5648" lon="5.2625">
        <ele>198</ele>
        <time>2017-02-05T10:16:22Z</time>
      </trkpt>
      <trkpt lat="43.5648" lon="5.26261">
        <ele>198</ele>
        <time>2017-02-05T10:16:18Z</time>
      </trkpt>
      <trkpt lat="43.56479" lon="5.26274">
        <ele>200</ele>
        <time>2017-02-05T10:16:14Z</time>
      </trkpt>
      <trkpt lat="43.56476" lon="5.26286">
        <ele>201</ele>
        <time>2017-02-05T10:16:10Z</time>
      </trkpt>
      <trkpt lat="43.56474" lon="5.26296">
        <ele>202</ele>
        <time>2017-02-05T10:16:06Z</time>
      </trkpt>
      <trkpt lat="43.5647" lon="5.26308">
        <ele>204</ele>
        <time>2017-02-05T10:16:02Z</time>
      </trkpt>
      <trkpt lat="43.56472" lon="5.26318">
        <ele>205</ele>
        <time>2017-02-05T10:15:58Z</time>
      </trkpt>
      <trkpt lat="43.56481" lon="5.26323">
        <ele>207</ele>
        <time>2017-02-05T10:15:54Z</time>
      </trkpt>
      <trkpt lat="43.56489" lon="5.26318">
        <ele>208</ele>
        <time>2017-02-05T10:15:50Z</time>
      </trkpt>
      <trkpt lat="43.56492" lon="5.26306">
        <ele>209</ele>
        <time>2017-02-05T10:15:46Z</time>
      </trkpt>
      <trkpt lat="43.56493" lon="5.26298">
        <ele>210</ele>
        <time>2017-02-05T10:15:42Z</time>
      </trkpt>
      <trkpt lat="43.56495" lon="5.26286">
        <ele>212</ele>
        <time>2017-02-05T10:15:38Z</time>
      </trkpt>
      <trkpt lat="43.56498" lon="5.26274">
        <ele>213</ele>
        <time>2017-02-05T10:15:34Z</time>
      </trkpt>
      <trkpt lat="43.56502" lon="5.26263">
        <ele>215</ele>
        <time>2017-02-05T10:15:30Z</time>
      </trkpt>
      <trkpt lat="43.56508" lon="5.26252">
        <ele>216</ele>
        <time>2017-02-05T10:15:26Z</time>
      </trkpt>
      <trkpt lat="43.56514" lon="5.26245">
        <ele>217</ele>
        <time>2017-02-05T10:15:22Z</time>
      </trkpt>
      <trkpt lat="43.56521" lon="5.26235">
        <ele>218</ele>
        <time>2017-02-05T10:15:18Z</time>
      </trkpt>
      <trkpt lat="43.56527" lon="5.26229">
        <ele>219</ele>
        <time>2017-02-05T10:15:14Z</time>
      </trkpt>
      <trkpt lat="43.56535" lon="5.26225">
        <ele>220</ele>
        <time>2017-02-05T10:15:10Z</time>
      </trkpt>
      <trkpt lat="43.56542" lon="5.26228">
        <ele>220</ele>
        <time>2017-02-05T10:15:06Z</time>
      </trkpt>
      <trkpt lat="43.5655" lon="5.26232">
        <ele>221</ele>
        <time>2017-02-05T10:15:02Z</time>
      </trkpt>
      <trkpt lat="43.56559" lon="5.26236">
        <ele>221</ele>
        <time>2017-02-05T10:14:58Z</time>
      </trkpt>
      <trkpt lat="43.56566" lon="5.26239">
        <ele>222</ele>
        <time>2017-02-05T10:14:54Z</time>
      </trkpt>
      <trkpt lat="43.56575" lon="5.26242">
        <ele>222</ele>
        <time>2017-02-05T10:14:50Z</time>
      </trkpt>
      <trkpt lat="43.56584" lon="5.26246">
        <ele>223</ele>
        <time>2017-02-05T10:14:46Z</time>
      </trkpt>
      <trkpt lat="43.56593" lon="5.26248">
        <ele>223</ele>
        <time>2017-02-05T10:14:42Z</time>
      </trkpt>
      <trkpt lat="43.56601" lon="5.26248">
        <ele>224</ele>
        <time>2017-02-05T10:14:38Z</time>
      </trkpt>
      <trkpt lat="43.56609" lon="5.26242">
        <ele>224</ele>
        <time>2017-02-05T10:14:34Z</time>
      </trkpt>
      <trkpt lat="43.56616" lon="5.26237">
        <ele>225</ele>
        <time>2017-02-05T10:14:30Z</time>
      </trkpt>
      <trkpt lat="43.56624" lon="5.26232">
        <ele>225</ele>
        <time>2017-02-05T10:14:26Z</time>
      </trkpt>
      <trkpt lat="43.56634" lon="5.26228">
        <ele>225</ele>
        <time>2017-02-05T10:14:22Z</time>
      </trkpt>
      <trkpt lat="43.56643" lon="5.26226">
        <ele>226</ele>
        <time>2017-02-05T10:14:18Z</time>
      </trkpt>
      <trkpt lat="43.56652" lon="5.26227">
        <ele>226</ele>
        <time>2017-02-05T10:14:14Z</time>
      </trkpt>
      <trkpt lat="43.5666" lon="5.26233">
        <ele>226</ele>
        <time>2017-02-05T10:14:10Z</time>
      </trkpt>
      <trkpt lat="43.56665" lon="5.26239">
        <ele>227</ele>
        <time>2017-02-05T10:14:06Z</time>
      </trkpt>
      <trkpt lat="43.56671" lon="5.26251">
        <ele>227</ele>
        <time>2017-02-05T10:14:02Z</time>
      </trkpt>
      <trkpt lat="43.56674" lon="5.26259">
        <ele>227</ele>
        <time>2017-02-05T10:13:58Z</time>
      </trkpt>
      <trkpt lat="43.56677" lon="5.2627">
        <ele>228</ele>
        <time>2017-02-05T10:13:54Z</time>
      </trkpt>
      <trkpt lat="43.56679" lon="5.26281">
        <ele>228</ele>
        <time>2017-02-05T10:13:50Z</time>
      </trkpt>
      <trkpt lat="43.56682" lon="5.26292">
        <ele>229</ele>
        <time>2017-02-05T10:13:46Z</time>
      </trkpt>
      <trkpt lat="43.56685" lon="5.26303">
        <ele>229</ele>
        <time>2017-02-05T10:13:42Z</time>
      </trkpt>
      <trkpt lat="43.56687" lon="5.26312">
        <ele>229</ele>
        <time>2017-02-05T10:13:38Z</time>
      </trkpt>
      <trkpt lat="43.56689" lon="5.26324">
        <ele>229</ele>
        <time>2017-02-05T10:13:34Z</time>
      </trkpt>
      <trkpt lat="43.56691" lon="5.26337">
        <ele>229</ele>
        <time>2017-02-05T10:13:30Z</time>
      </trkpt>
      <trkpt lat="43.56692" lon="5.26349">
        <ele>229</ele>
        <time>2017-02-05T10:13:26Z</time>
      </trkpt>
      <trkpt lat="43.5669" lon="5.26359">
        <ele>229</ele>
        <time>2017-02-05T10:13:22Z</time>
      </trkpt>
      <trkpt lat="43.56689" lon="5.26371">
        <ele>230</ele>
        <time>2017-02-05T10:13:18Z</time>
      </trkpt>
      <trkpt lat="43.56687" lon="5.26383">
        <ele>230</ele>
        <time>2017-02-05T10:13:14Z</time>
      </trkpt>
      <trkpt lat="43.56687" lon="5.26393">
        <ele>230</ele>
        <time>2017-02-05T10:13:10Z</time>
      </trkpt>
      <trkpt lat="43.56688" lon="5.26405">
        <ele>230</ele>
        <time>2017-02-05T10:13:06Z</time>
      </trkpt>
      <trkpt lat="43.56691" lon="5.26414">
        <ele>231</ele>
        <time>2017-02-05T10:13:02Z</time>
      </trkpt>
      <trkpt lat="43.56695" lon="5.26427">
        <ele>231</ele>
        <time>2017-02-05T10:12:58Z</time>
      </trkpt>
      <trkpt lat="43.56699" lon="5.26436">
        <ele>232</ele>
        <time>2017-02-05T10:12:54Z</time>
      </trkpt>
      <trkpt lat="43.56703" lon="5.26448">
        <ele>232</ele>
        <time>2017-02-05T10:12:50Z</time>
      </trkpt>
      <trkpt lat="43.56706" lon="5.26457">
        <ele>233</ele>
        <time>2017-02-05T10:12:46Z</time>
      </trkpt>
      <trkpt lat="43.56709" lon="5.26468">
        <ele>233</ele>
        <time>2017-02-05T10:12:42Z</time>
      </trkpt>
      <trkpt lat="43.56711" lon="5.26478">
        <ele>234</ele>
        <time>2017-02-05T10:12:38Z</time>
      </trkpt>
      <trkpt lat="43.56713" lon="5.26488">
        <ele>234</ele>
        <time>2017-02-05T10:12:34Z</time>
      </trkpt>
      <trkpt lat="43.56718" lon="5.26498">
        <ele>235</ele>
        <time>2017-02-05T10:12:30Z</time>
      </trkpt>
      <trkpt lat="43.56723" lon="5.26506">
        <ele>235</ele>
        <time>2017-02-05T10:12:26Z</time>
      </trkpt>
      <trkpt lat="43.5673" lon="5.26515">
        <ele>236</ele>
        <time>2017-02-05T10:12:22Z</time>
      </trkpt>
      <trkpt lat="43.56736" lon="5.26521">
        <ele>237</ele>
        <time>2017-02-05T10:12:18Z</time>
      </trkpt>
      <trkpt lat="43.56744" lon="5.26526">
        <ele>238</ele>
        <time>2017-02-05T10:12:14Z</time>
      </trkpt>
      <trkpt lat="43.56752" lon="5.26531">
        <ele>238</ele>
        <time>2017-02-05T10:12:10Z</time>
      </trkpt>
      <trkpt lat="43.56757" lon="5.26538">
        <ele>239</ele>
        <time>2017-02-05T10:12:06Z</time>
      </trkpt>
      <trkpt lat="43.56764" lon="5.26547">
        <ele>240</ele>
        <time>2017-02-05T10:12:02Z</time>
      </trkpt>
      <trkpt lat="43.56768" lon="5.26555">
        <ele>241</ele>
        <time>2017-02-05T10:11:58Z</time>
      </trkpt>
      <trkpt lat="43.56773" lon="5.26566">
        <ele>242</ele>
        <time>2017-02-05T10:11:54Z</time>
      </trkpt>
      <trkpt lat="43.56777" lon="5.26576">
        <ele>242</ele>
        <time>2017-02-05T10:11:50Z</time>
      </trkpt>
      <trkpt lat="43.5678" lon="5.26584">
        <ele>243</ele>
        <time>2017-02-05T10:11:46Z</time>
      </trkpt>
      <trkpt lat="43.56782" lon="5.26597">
        <ele>243</ele>
        <time>2017-02-05T10:11:42Z</time>
      </trkpt>
      <trkpt lat="43.56783" lon="5.26607">
        <ele>244</ele>
        <time>2017-02-05T10:11:38Z</time>
      </trkpt>
      <trkpt lat="43.56784" lon="5.26619">
        <ele>244</ele>
        <time>2017-02-05T10:11:34Z</time>
      </trkpt>
      <trkpt lat="43.56786" lon="5.26628">
        <ele>245</ele>
        <time>2017-02-05T10:11:30Z</time>
      </trkpt>
      <trkpt lat="43.5679" lon="5.2664">
        <ele>245</ele>
        <time>2017-02-05T10:11:26Z</time>
      </trkpt>
      <trkpt lat="43.56793" lon="5.26649">
        <ele>245</ele>
        <time>2017-02-05T10:11:22Z</time>
      </trkpt>
      <trkpt lat="43.56797" lon="5.26662">
        <ele>246</ele>
        <time>2017-02-05T10:11:18Z</time>
      </trkpt>
      <trkpt lat="43.56801" lon="5.26672">
        <ele>246</ele>
        <time>2017-02-05T10:11:14Z</time>
      </trkpt>
      <trkpt lat="43.56805" lon="5.26681">
        <ele>246</ele>
        <time>2017-02-05T10:11:10Z</time>
      </trkpt>
      <trkpt lat="43.56811" lon="5.2669">
        <ele>246</ele>
        <time>2017-02-05T10:11:06Z</time>
      </trkpt>
      <trkpt lat="43.56815" lon="5.26697">
        <ele>246</ele>
        <time>2017-02-05T10:11:02Z</time>
      </trkpt>
      <trkpt lat="43.56821" lon="5.26708">
        <ele>247</ele>
        <time>2017-02-05T10:10:58Z</time>
      </trkpt>
      <trkpt lat="43.56825" lon="5.26715">
        <ele>247</ele>
        <time>2017-02-05T10:10:54Z</time>
      </trkpt>
      <trkpt lat="43.5683" lon="5.26727">
        <ele>247</ele>
        <time>2017-02-05T10:10:50Z</time>
      </trkpt>
      <trkpt lat="43.56834" lon="5.26738">
        <ele>247</ele>
        <time>2017-02-05T10:10:46Z</time>
      </trkpt>
      <trkpt lat="43.56837" lon="5.26749">
        <ele>247</ele>
        <time>2017-02-05T10:10:42Z</time>
      </trkpt>
      <trkpt lat="43.56838" lon="5.26759">
        <ele>247</ele>
        <time>2017-02-05T10:10:38Z</time>
      </trkpt>
      <trkpt lat="43.56839" lon="5.26772">
        <ele>246</ele>
        <time>2017-02-05T10:10:34Z</time>
      </trkpt>
      <trkpt lat="43.56839" lon="5.26781">
        <ele>246</ele>
        <time>2017-02-05T10:10:30Z</time>
      </trkpt>
      <trkpt lat="43.56839" lon="5.26793">
        <ele>246</ele>
        <time>2017-02-05T10:10:26Z</time>
      </trkpt>
      <trkpt lat="43.5684" lon="5.26804">
        <ele>246</ele>
        <time>2017-02-05T10:10:22Z</time>
      </trkpt>
      <trkpt lat="43.56841" lon="5.26815">
        <ele>247</ele>
        <time>2017-02-05T10:10:18Z</time>
      </trkpt>
      <trkpt lat="43.56843" lon="5.26826">
        <ele>247</ele>
        <time>2017-02-05T10:10:14Z</time>
      </trkpt>
      <trkpt lat="43.56844" lon="5.26836">
        <ele>247</ele>
        <time>2017-02-05T10:10:10Z</time>
      </trkpt>
      <trkpt lat="43.56846" lon="5.26848">
        <ele>247</ele>
        <time>2017-02-05T10:10:06Z</time>
      </trkpt>
      <trkpt lat="43.56849" lon="5.26857">
        <ele>247</ele>
        <time>2017-02-05T10:10:02Z</time>
      </trkpt>
      <trkpt lat="43.56848" lon="5.26869">
        <ele>247</ele>
        <time>2017-02-05T10:09:58Z</time>
      </trkpt>
      <trkpt lat="43.56846" lon="5.26881">
        <ele>247</ele>
        <time>2017-02-05T10:09:54Z</time>
      </trkpt>
      <trkpt lat="43.56844" lon="5.26892">
        <ele>247</ele>
        <time>2017-02-05T10:09:50Z</time>
      </trkpt>
      <trkpt lat="43.56841" lon="5.26902">
        <ele>247</ele>
        <time>2017-02-05T10:09:46Z</time>
      </trkpt>
      <trkpt lat="43.56839" lon="5.26914">
        <ele>247</ele>
        <time>2017-02-05T10:09:42Z</time>
      </trkpt>
      <trkpt lat="43.56836" lon="5.26923">
        <ele>247</ele>
        <time>2017-02-05T10:09:38Z</time>
      </trkpt>
      <trkpt lat="43.56834" lon="5.26935">
        <ele>247</ele>
        <time>2017-02-05T10:09:34Z</time>
      </trkpt>
      <trkpt lat="43.56832" lon="5.26943">
        <ele>247</ele>
        <time>2017-02-05T10:09:30Z</time>
      </trkpt>
      <trkpt lat="43.56829" lon="5.26956">
        <ele>247</ele>
        <time>2017-02-05T10:09:26Z</time>
      </trkpt>
      <trkpt lat="43.56828" lon="5.26966">
        <ele>247</ele>
        <time>2017-02-05T10:09:22Z</time>
      </trkpt>
      <trkpt lat="43.56825" lon="5.26978">
        <ele>247</ele>
        <time>2017-02-05T10:09:18Z</time>
      </trkpt>
      <trkpt lat="43.56823" lon="5.2699">
        <ele>247</ele>
        <time>2017-02-05T10:09:14Z</time>
      </trkpt>
      <trkpt lat="43.56821" lon="5.26999">
        <ele>247</ele>
        <time>2017-02-05T10:09:10Z</time>
      </trkpt>
      <trkpt lat="43.56818" lon="5.27012">
        <ele>247</ele>
        <time>2017-02-05T10:09:06Z</time>
      </trkpt>
      <trkpt lat="43.56816" lon="5.27022">
        <ele>247</ele>
        <time>2017-02-05T10:09:02Z</time>
      </trkpt>
      <trkpt lat="43.56813" lon="5.27035">
        <ele>246</ele>
        <time>2017-02-05T10:08:58Z</time>
      </trkpt>
      <trkpt lat="43.56812" lon="5.27046">
        <ele>246</ele>
        <time>2017-02-05T10:08:54Z</time>
      </trkpt>
      <trkpt lat="43.5681" lon="5.27058">
        <ele>246</ele>
        <time>2017-02-05T10:08:50Z</time>
      </trkpt>
      <trkpt lat="43.56808" lon="5.27067">
        <ele>246</ele>
        <time>2017-02-05T10:08:46Z</time>
      </trkpt>
      <trkpt lat="43.56804" lon="5.27077">
        <ele>246</ele>
        <time>2017-02-05T10:08:42Z</time>
      </trkpt>
      <trkpt lat="43.56801" lon="5.27086">
        <ele>246</ele>
        <time>2017-02-05T10:08:38Z</time>
      </trkpt>
      <trkpt lat="43.56799" lon="5.27097">
        <ele>246</ele>
        <time>2017-02-05T10:08:34Z</time>
      </trkpt>
      <trkpt lat="43.56798" lon="5.2711">
        <ele>246</ele>
        <time>2017-02-05T10:08:30Z</time>
      </trkpt>
      <trkpt lat="43.568" lon="5.27119">
        <ele>245</ele>
        <time>2017-02-05T10:08:26Z</time>
      </trkpt>
      <trkpt lat="43.56802" lon="5.27131">
        <ele>245</ele>
        <time>2017-02-05T10:08:22Z</time>
      </trkpt>
      <trkpt lat="43.56804" lon="5.27139">
        <ele>245</ele>
        <time>2017-02-05T10:08:18Z</time>
      </trkpt>
      <trkpt lat="43.56802" lon="5.27152">
        <ele>245</ele>
        <time>2017-02-05T10:08:14Z</time>
      </trkpt>
      <trkpt lat="43.56802" lon="5.27163">
        <ele>244</ele>
        <time>2017-02-05T10:08:10Z</time>
      </trkpt>
      <trkpt lat="43.56805" lon="5.27171">
        <ele>244</ele>
        <time>2017-02-05T10:08:06Z</time>
      </trkpt>
      <trkpt lat="43.5681" lon="5.27181">
        <ele>244</ele>
        <time>2017-02-05T10:08:02Z</time>
      </trkpt>
      <trkpt lat="43.56817" lon="5.27189">
        <ele>244</ele>
        <time>2017-02-05T10:07:58Z</time>
      </trkpt>
      <trkpt lat="43.56822" lon="5.27195">
        <ele>244</ele>
        <time>2017-02-05T10:07:54Z</time>
      </trkpt>
      <trkpt lat="43.56829" lon="5.27201">
        <ele>243</ele>
        <time>2017-02-05T10:07:50Z</time>
      </trkpt>
      <trkpt lat="43.56835" lon="5.27207">
        <ele>243</ele>
        <time>2017-02-05T10:07:46Z</time>
      </trkpt>
      <trkpt lat="43.56842" lon="5.27216">
        <ele>243</ele>
        <time>2017-02-05T10:07:42Z</time>
      </trkpt>
      <trkpt lat="43.56848" lon="5.27224">
        <ele>242</ele>
        <time>2017-02-05T10:07:38Z</time>
      </trkpt>
      <trkpt lat="43.56854" lon="5.27229">
        <ele>242</ele>
        <time>2017-02-05T10:07:34Z</time>
      </trkpt>
      <trkpt lat="43.5686" lon="5.27237">
        <ele>242</ele>
        <time>2017-02-05T10:07:30Z</time>
      </trkpt>
      <trkpt lat="43.56865" lon="5.27245">
        <ele>242</ele>
        <time>2017-02-05T10:07:26Z</time>
      </trkpt>
      <trkpt lat="43.56869" lon="5.27253">
        <ele>242</ele>
        <time>2017-02-05T10:07:22Z</time>
      </trkpt>
      <trkpt lat="43.56873" lon="5.27261">
        <ele>241</ele>
        <time>2017-02-05T10:07:18Z</time>
      </trkpt>
      <trkpt lat="43.56879" lon="5.27265">
        <ele>241</ele>
        <time>2017-02-05T10:07:14Z</time>
      </trkpt>
      <trkpt lat="43.56888" lon="5.27265">
        <ele>241</ele>
        <time>2017-02-05T10:07:10Z</time>
      </trkpt>
      <trkpt lat="43.56894" lon="5.27261">
        <ele>241</ele>
        <time>2017-02-05T10:07:06Z</time>
      </trkpt>
      <trkpt lat="43.569" lon="5.27257">
        <ele>241</ele>
        <time>2017-02-05T10:07:02Z</time>
      </trkpt>
      <trkpt lat="43.56906" lon="5.27249">
        <ele>241</ele>
        <time>2017-02-05T10:06:58Z</time>
      </trkpt>
      <trkpt lat="43.56909" lon="5.2724">
        <ele>241</ele>
        <time>2017-02-05T10:06:54Z</time>
      </trkpt>
      <trkpt lat="43.56913" lon="5.27232">
        <ele>241</ele>
        <time>2017-02-05T10:06:50Z</time>
      </trkpt>
      <trkpt lat="43.5692" lon="5.27222">
        <ele>241</ele>
        <time>2017-02-05T10:06:46Z</time>
      </trkpt>
      <trkpt lat="43.56924" lon="5.27214">
        <ele>241</ele>
        <time>2017-02-05T10:06:42Z</time>
      </trkpt>
      <trkpt lat="43.5693" lon="5.27203">
        <ele>241</ele>
        <time>2017-02-05T10:06:38Z</time>
      </trkpt>
      <trkpt lat="43.56932" lon="5.27195">
        <ele>241</ele>
        <time>2017-02-05T10:06:34Z</time>
      </trkpt>
      <trkpt lat="43.56936" lon="5.27185">
        <ele>241</ele>
        <time>2017-02-05T10:06:30Z</time>
      </trkpt>
      <trkpt lat="43.56939" lon="5.27178">
        <ele>242</ele>
        <time>2017-02-05T10:06:26Z</time>
      </trkpt>
      <trkpt lat="43.56942" lon="5.27168">
        <ele>242</ele>
        <time>2017-02-05T10:06:22Z</time>
      </trkpt>
      <trkpt lat="43.56946" lon="5.27159">
        <ele>242</ele>
        <time>2017-02-05T10:06:18Z</time>
      </trkpt>
      <trkpt lat="43.5695" lon="5.27148">
        <ele>242</ele>
        <time>2017-02-05T10:06:14Z</time>
      </trkpt>
      <trkpt lat="43.56953" lon="5.27137">
        <ele>243</ele>
        <time>2017-02-05T10:06:10Z</time>
      </trkpt>
      <trkpt lat="43.56957" lon="5.27129">
        <ele>243</ele>
        <time>2017-02-05T10:06:06Z</time>
      </trkpt>
      <trkpt lat="43.56961" lon="5.27117">
        <ele>243</ele>
        <time>2017-02-05T10:06:02Z</time>
      </trkpt>
      <trkpt lat="43.56962" lon="5.27107">
        <ele>244</ele>
        <time>2017-02-05T10:05:58Z</time>
      </trkpt>
      <trkpt lat="43.56966" lon="5.27095">
        <ele>244</ele>
        <time>2017-02-05T10:05:54Z</time>
      </trkpt>
      <trkpt lat="43.5697" lon="5.27087">
        <ele>244</ele>
        <time>2017-02-05T10:05:50Z</time>
      </trkpt>
      <trkpt lat="43.56974" lon="5.27076">
        <ele>244</ele>
        <time>2017-02-05T10:05:46Z</time>
      </trkpt>
      <trkpt lat="43.56977" lon="5.27067">
        <ele>244</ele>
        <time>2017-02-05T10:05:42Z</time>
      </trkpt>
      <trkpt lat="43.56981" lon="5.27057">
        <ele>244</ele>
        <time>2017-02-05T10:05:38Z</time>
      </trkpt>
      <trkpt lat="43.56985" lon="5.2705">
        <ele>244</ele>
        <time>2017-02-05T10:05:34Z</time>
      </trkpt>
      <trkpt lat="43.56991" lon="5.27041">
        <ele>244</ele>
        <time>2017-02-05T10:05:30Z</time>
      </trkpt>
      <trkpt lat="43.56995" lon="5.27031">
        <ele>244</ele>
        <time>2017-02-05T10:05:26Z</time>
      </trkpt>
      <trkpt lat="43.56999" lon="5.27022">
        <ele>244</ele>
        <time>2017-02-05T10:05:22Z</time>
      </trkpt>
      <trkpt lat="43.57003" lon="5.27012">
        <ele>244</ele>
        <time>2017-02-05T10:05:18Z</time>
      </trkpt>
      <trkpt lat="43.57007" lon="5.27002">
        <ele>243</ele>
        <time>2017-02-05T10:05:14Z</time>
      </trkpt>
      <trkpt lat="43.5701" lon="5.26991">
        <ele>243</ele>
        <time>2017-02-05T10:05:10Z</time>
      </trkpt>
      <trkpt lat="43.57013" lon="5.26984">
        <ele>243</ele>
        <time>2017-02-05T10:05:06Z</time>
      </trkpt>
      <trkpt lat="43.57017" lon="5.26971">
        <ele>243</ele>
        <time>2017-02-05T10:05:02Z</time>
      </trkpt>
      <trkpt lat="43.57021" lon="5.26962">
        <ele>243</ele>
        <time>2017-02-05T10:04:58Z</time>
      </trkpt>
      <trkpt lat="43.57025" lon="5.26952">
        <ele>242</ele>
        <time>2017-02-05T10:04:54Z</time>
      </trkpt>
      <trkpt lat="43.57027" lon="5.26942">
        <ele>242</ele>
        <time>2017-02-05T10:04:50Z</time>
      </trkpt>
      <trkpt lat="43.57028" lon="5.2693">
        <ele>242</ele>
        <time>2017-02-05T10:04:46Z</time>
      </trkpt>
      <trkpt lat="43.57032" lon="5.26922">
        <ele>242</ele>
        <time>2017-02-05T10:04:42Z</time>
      </trkpt>
      <trkpt lat="43.57036" lon="5.26915">
        <ele>242</ele>
        <time>2017-02-05T10:04:38Z</time>
      </trkpt>
      <trkpt lat="43.57042" lon="5.26903">
        <ele>242</ele>
        <time>2017-02-05T10:04:34Z</time>
      </trkpt>
      <trkpt lat="43.57045" lon="5.26895">
        <ele>242</ele>
        <time>2017-02-05T10:04:30Z</time>
      </trkpt>
      <trkpt lat="43.57048" lon="5.26885">
        <ele>242</ele>
        <time>2017-02-05T10:04:26Z</time>
      </trkpt>
      <trkpt lat="43.57048" lon="5.26873">
        <ele>242</ele>
        <time>2017-02-05T10:04:22Z</time>
      </trkpt>
      <trkpt lat="43.57052" lon="5.26866">
        <ele>242</ele>
        <time>2017-02-05T10:04:18Z</time>
      </trkpt>
      <trkpt lat="43.57059" lon="5.26859">
        <ele>242</ele>
        <time>2017-02-05T10:04:14Z</time>
      </trkpt>
      <trkpt lat="43.57068" lon="5.26852">
        <ele>242</ele>
        <time>2017-02-05T10:04:10Z</time>
      </trkpt>
      <trkpt lat="43.57074" lon="5.26849">
        <ele>242</ele>
        <time>2017-02-05T10:04:06Z</time>
      </trkpt>
      <trkpt lat="43.5708" lon="5.26842">
        <ele>242</ele>
        <time>2017-02-05T10:04:02Z</time>
      </trkpt>
      <trkpt lat="43.57085" lon="5.26832">
        <ele>243</ele>
        <time>2017-02-05T10:03:58Z</time>
      </trkpt>
      <trkpt lat="43.5709" lon="5.26824">
        <ele>242</ele>
        <time>2017-02-05T10:03:54Z</time>
      </trkpt>
      <trkpt lat="43.57097" lon="5.26819">
        <ele>242</ele>
        <time>2017-02-05T10:03:50Z</time>
      </trkpt>
      <trkpt lat="43.57102" lon="5.26816">
        <ele>242</ele>
        <time>2017-02-05T10:03:46Z</time>
      </trkpt>
      <trkpt lat="43.57107" lon="5.26815">
        <ele>241</ele>
        <time>2017-02-05T10:03:42Z</time>
      </trkpt>
      <trkpt lat="43.57116" lon="5.26811">
        <ele>241</ele>
        <time>2017-02-05T10:03:38Z</time>
      </trkpt>
      <trkpt lat="43.57126" lon="5.26804">
        <ele>240</ele>
        <time>2017-02-05T10:03:34Z</time>
      </trkpt>
      <trkpt lat="43.57131" lon="5.26802">
        <ele>239</ele>
        <time>2017-02-05T10:03:30Z</time>
      </trkpt>
      <trkpt lat="43.57135" lon="5.26806">
        <ele>238</ele>
        <time>2017-02-05T10:03:26Z</time>
      </trkpt>
      <trkpt lat="43.57144" lon="5.26811">
        <ele>236</ele>
        <time>2017-02-05T10:03:22Z</time>
      </trkpt>
      <trkpt lat="43.57155" lon="5.26817">
        <ele>235</ele>
        <time>2017-02-05T10:03:18Z</time>
      </trkpt>
      <trkpt lat="43.57162" lon="5.2682">
        <ele>234</ele>
        <time>2017-02-05T10:03:14Z</time>
      </trkpt>
      <trkpt lat="43.57167" lon="5.26822">
        <ele>233</ele>
        <time>2017-02-05T10:03:10Z</time>
      </trkpt>
      <trkpt lat="43.57171" lon="5.26822">
        <ele>231</ele>
        <time>2017-02-05T10:03:06Z</time>
      </trkpt>
      <trkpt lat="43.57179" lon="5.26824">
        <ele>230</ele>
        <time>2017-02-05T10:03:02Z</time>
      </trkpt>
      <trkpt lat="43.57186" lon="5.26825">
        <ele>229</ele>
        <time>2017-02-05T10:02:58Z</time>
      </trkpt>
      <trkpt lat="43.57195" lon="5.2683">
        <ele>228</ele>
        <time>2017-02-05T10:02:54Z</time>
      </trkpt>
      <trkpt lat="43.57206" lon="5.26829">
        <ele>226</ele>
        <time>2017-02-05T10:02:50Z</time>
      </trkpt>
      <trkpt lat="43.57212" lon="5.26829">
        <ele>226</ele>
        <time>2017-02-05T10:02:46Z</time>
      </trkpt>
      <trkpt lat="43.57213" lon="5.26829">
        <ele>225</ele>
        <time>2017-02-05T10:02:42Z</time>
      </trkpt>
      <trkpt lat="43.57215" lon="5.26828">
        <ele>224</ele>
        <time>2017-02-05T10:02:38Z</time>
      </trkpt>
      <trkpt lat="43.57217" lon="5.26827">
        <ele>224</ele>
        <time>2017-02-05T10:02:34Z</time>
      </trkpt>
      <trkpt lat="43.57222" lon="5.26824">
        <ele>224</ele>
        <time>2017-02-05T10:02:30Z</time>
      </trkpt>
      <trkpt lat="43.57228" lon="5.26818">
        <ele>224</ele>
        <time>2017-02-05T10:02:26Z</time>
      </trkpt>
      <trkpt lat="43.57235" lon="5.26814">
        <ele>224</ele>
        <time>2017-02-05T10:02:22Z</time>
      </trkpt>
      <trkpt lat="43.57242" lon="5.26809">
        <ele>224</ele>
        <time>2017-02-05T10:02:18Z</time>
      </trkpt>
      <trkpt lat="43.57247" lon="5.26802">
        <ele>225</ele>
        <time>2017-02-05T10:02:14Z</time>
      </trkpt>
      <trkpt lat="43.57251" lon="5.26797">
        <ele>225</ele>
        <time>2017-02-05T10:02:10Z</time>
      </trkpt>
      <trkpt lat="43.57258" lon="5.26791">
        <ele>225</ele>
        <time>2017-02-05T10:02:06Z</time>
      </trkpt>
      <trkpt lat="43.57263" lon="5.26787">
        <ele>225</ele>
        <time>2017-02-05T10:02:02Z</time>
      </trkpt>
      <trkpt lat="43.57271" lon="5.26783">
        <ele>225</ele>
        <time>2017-02-05T10:01:58Z</time>
      </trkpt>
      <trkpt lat="43.57281" lon="5.26779">
        <ele>225</ele>
        <time>2017-02-05T10:01:54Z</time>
      </trkpt>
      <trkpt lat="43.57288" lon="5.26772">
        <ele>225</ele>
        <time>2017-02-05T10:01:50Z</time>
      </trkpt>
      <trkpt lat="43.57295" lon="5.26768">
        <ele>225</ele>
        <time>2017-02-05T10:01:46Z</time>
      </trkpt>
      <trkpt lat="43.57301" lon="5.26762">
        <ele>225</ele>
        <time>2017-02-05T10:01:42Z</time>
      </trkpt>
      <trkpt lat="43.57308" lon="5.26753">
        <ele>225</ele>
        <time>2017-02-05T10:01:38Z</time>
      </trkpt>
      <trkpt lat="43.57311" lon="5.26747">
        <ele>225</ele>
        <time>2017-02-05T10:01:34Z</time>
      </trkpt>
      <trkpt lat="43.57315" lon="5.26736">
        <ele>225</ele>
        <time>2017-02-05T10:01:30Z</time>
      </trkpt>
      <trkpt lat="43.5732" lon="5.2673">
        <ele>224</ele>
        <time>2017-02-05T10:01:26Z</time>
      </trkpt>
      <trkpt lat="43.57328" lon="5.26721">
        <ele>224</ele>
        <time>2017-02-05T10:01:22Z</time>
      </trkpt>
      <trkpt lat="43.57333" lon="5.26715">
        <ele>224</ele>
        <time>2017-02-05T10:01:18Z</time>
      </trkpt>
      <trkpt lat="43.57339" lon="5.26706">
        <ele>224</ele>
        <time>2017-02-05T10:01:14Z</time>
      </trkpt>
      <trkpt lat="43.57345" lon="5.267">
        <ele>223</ele>
        <time>2017-02-05T10:01:10Z</time>
      </trkpt>
      <trkpt lat="43.5735" lon="5.26687">
        <ele>224</ele>
        <time>2017-02-05T10:01:06Z</time>
      </trkpt>
      <trkpt lat="43.57354" lon="5.26681">
        <ele>224</ele>
        <time>2017-02-05T10:01:02Z</time>
      </trkpt>
      <trkpt lat="43.5736" lon="5.26673">
        <ele>224</ele>
        <time>2017-02-05T10:00:58Z</time>
      </trkpt>
      <trkpt lat="43.57366" lon="5.26669">
        <ele>224</ele>
        <time>2017-02-05T10:00:54Z</time>
      </trkpt>
      <trkpt lat="43.57374" lon="5.26666">
        <ele>224</ele>
        <time>2017-02-05T10:00:50Z</time>
      </trkpt>
      <trkpt lat="43.57381" lon="5.26665">
        <ele>224</ele>
        <time>2017-02-05T10:00:46Z</time>
      </trkpt>
      <trkpt lat="43.57388" lon="5.26664">
        <ele>224</ele>
        <time>2017-02-05T10:00:42Z</time>
      </trkpt>
      <trkpt lat="43.57396" lon="5.26663">
        <ele>225</ele>
        <time>2017-02-05T10:00:38Z</time>
      </trkpt>
      <trkpt lat="43.57404" lon="5.26661">
        <ele>225</ele>
        <time>2017-02-05T10:00:34Z</time>
      </trkpt>
      <trkpt lat="43.57411" lon="5.2666">
        <ele>226</ele>
        <time>2017-02-05T10:00:30Z</time>
      </trkpt>
      <trkpt lat="43.57418" lon="5.26659">
        <ele>226</ele>
        <time>2017-02-05T10:00:26Z</time>
      </trkpt>
      <trkpt lat="43.57426" lon="5.26656">
        <ele>227</ele>
        <time>2017-02-05T10:00:22Z</time>
      </trkpt>
      <trkpt lat="43.57433" lon="5.26653">
        <ele>227</ele>
        <time>2017-02-05T10:00:18Z</time>
      </trkpt>
      <trkpt lat="43.57441" lon="5.26649">
        <ele>228</ele>
        <time>2017-02-05T10:00:14Z</time>
      </trkpt>
      <trkpt lat="43.57449" lon="5.26645">
        <ele>228</ele>
        <time>2017-02-05T10:00:10Z</time>
      </trkpt>
      <trkpt lat="43.57456" lon="5.26641">
        <ele>228</ele>
        <time>2017-02-05T10:00:06Z</time>
      </trkpt>
      <trkpt lat="43.57465" lon="5.26637">
        <ele>229</ele>
        <time>2017-02-05T10:00:02Z</time>
      </trkpt>
      <trkpt lat="43.57471" lon="5.26631">
        <ele>229</ele>
        <time>2017-02-05T09:59:58Z</time>
      </trkpt>
      <trkpt lat="43.5747" lon="5.2662">
        <ele>230</ele>
        <time>2017-02-05T09:59:54Z</time>
      </trkpt>
      <trkpt lat="43.57467" lon="5.26612">
        <ele>231</ele>
        <time>2017-02-05T09:59:50Z</time>
      </trkpt>
      <trkpt lat="43.57464" lon="5.266">
        <ele>231</ele>
        <time>2017-02-05T09:59:46Z</time>
      </trkpt>
      <trkpt lat="43.5746" lon="5.26591">
        <ele>232</ele>
        <time>2017-02-05T09:59:42Z</time>
      </trkpt>
      <trkpt lat="43.57457" lon="5.26577">
        <ele>233</ele>
        <time>2017-02-05T09:59:38Z</time>
      </trkpt>
      <trkpt lat="43.57454" lon="5.26568">
        <ele>234</ele>
        <time>2017-02-05T09:59:34Z</time>
      </trkpt>
      <trkpt lat="43.57452" lon="5.26557">
        <ele>235</ele>
        <time>2017-02-05T09:59:30Z</time>
      </trkpt>
      <trkpt lat="43.57453" lon="5.26545">
        <ele>235</ele>
        <time>2017-02-05T09:59:26Z</time>
      </trkpt>
      <trkpt lat="43.57453" lon="5.26535">
        <ele>236</ele>
        <time>2017-02-05T09:59:22Z</time>
      </trkpt>
      <trkpt lat="43.57452" lon="5.26524">
        <ele>236</ele>
        <time>2017-02-05T09:59:18Z</time>
      </trkpt>
      <trkpt lat="43.57451" lon="5.26513">
        <ele>237</ele>
        <time>2017-02-05T09:59:14Z</time>
      </trkpt>
      <trkpt lat="43.57448" lon="5.26501">
        <ele>238</ele>
        <time>2017-02-05T09:59:10Z</time>
      </trkpt>
      <trkpt lat="43.57447" lon="5.26494">
        <ele>238</ele>
        <time>2017-02-05T09:59:06Z</time>
      </trkpt>
      <trkpt lat="43.57445" lon="5.26481">
        <ele>239</ele>
        <time>2017-02-05T09:59:02Z</time>
      </trkpt>
      <trkpt lat="43.57445" lon="5.2647">
        <ele>239</ele>
        <time>2017-02-05T09:58:58Z</time>
      </trkpt>
      <trkpt lat="43.57443" lon="5.26457">
        <ele>240</ele>
        <time>2017-02-05T09:58:54Z</time>
      </trkpt>
      <trkpt lat="43.57441" lon="5.26447">
        <ele>240</ele>
        <time>2017-02-05T09:58:50Z</time>
      </trkpt>
      <trkpt lat="43.57442" lon="5.26434">
        <ele>241</ele>
        <time>2017-02-05T09:58:46Z</time>
      </trkpt>
      <trkpt lat="43.57442" lon="5.26426">
        <ele>241</ele>
        <time>2017-02-05T09:58:42Z</time>
      </trkpt>
      <trkpt lat="43.57444" lon="5.26415">
        <ele>241</ele>
        <time>2017-02-05T09:58:38Z</time>
      </trkpt>
      <trkpt lat="43.57444" lon="5.26405">
        <ele>241</ele>
        <time>2017-02-05T09:58:34Z</time>
      </trkpt>
      <trkpt lat="43.57445" lon="5.26397">
        <ele>241</ele>
        <time>2017-02-05T09:58:30Z</time>
      </trkpt>
      <trkpt lat="43.57448" lon="5.26383">
        <ele>240</ele>
        <time>2017-02-05T09:58:26Z</time>
      </trkpt>
      <trkpt lat="43.57449" lon="5.26372">
        <ele>240</ele>
        <time>2017-02-05T09:58:22Z</time>
      </trkpt>
      <trkpt lat="43.5745" lon="5.26366">
        <ele>240</ele>
        <time>2017-02-05T09:58:18Z</time>
      </trkpt>
      <trkpt lat="43.57453" lon="5.26355">
        <ele>239</ele>
        <time>2017-02-05T09:58:14Z</time>
      </trkpt>
      <trkpt lat="43.57457" lon="5.26341">
        <ele>239</ele>
        <time>2017-02-05T09:58:10Z</time>
      </trkpt>
      <trkpt lat="43.57458" lon="5.26332">
        <ele>239</ele>
        <time>2017-02-05T09:58:06Z</time>
      </trkpt>
      <trkpt lat="43.57458" lon="5.26325">
        <ele>238</ele>
        <time>2017-02-05T09:58:02Z</time>
      </trkpt>
      <trkpt lat="43.57459" lon="5.26312">
        <ele>238</ele>
        <time>2017-02-05T09:57:58Z</time>
      </trkpt>
      <trkpt lat="43.5746" lon="5.26299">
        <ele>237</ele>
        <time>2017-02-05T09:57:54Z</time>
      </trkpt>
      <trkpt lat="43.57461" lon="5.2629">
        <ele>236</ele>
        <time>2017-02-05T09:57:50Z</time>
      </trkpt>
      <trkpt lat="43.57463" lon="5.26284">
        <ele>236</ele>
        <time>2017-02-05T09:57:46Z</time>
      </trkpt>
      <trkpt lat="43.57465" lon="5.26277">
        <ele>235</ele>
        <time>2017-02-05T09:57:42Z</time>
      </trkpt>
      <trkpt lat="43.57468" lon="5.26265">
        <ele>235</ele>
        <time>2017-02-05T09:57:38Z</time>
      </trkpt>
      <trkpt lat="43.57469" lon="5.26249">
        <ele>234</ele>
        <time>2017-02-05T09:57:34Z</time>
      </trkpt>
      <trkpt lat="43.57471" lon="5.26238">
        <ele>234</ele>
        <time>2017-02-05T09:57:30Z</time>
      </trkpt>
      <trkpt lat="43.57472" lon="5.26232">
        <ele>234</ele>
        <time>2017-02-05T09:57:26Z</time>
      </trkpt>
      <trkpt lat="43.57472" lon="5.26226">
        <ele>234</ele>
        <time>2017-02-05T09:57:22Z</time>
      </trkpt>
      <trkpt lat="43.57475" lon="5.26217">
        <ele>234</ele>
        <time>2017-02-05T09:57:18Z</time>
      </trkpt>
      <trkpt lat="43.57477" lon="5.2621">
        <ele>234</ele>
        <time>2017-02-05T09:57:14Z</time>
      </trkpt>
      <trkpt lat="43.57478" lon="5.26197">
        <ele>234</ele>
        <time>2017-02-05T09:57:10Z</time>
      </trkpt>
      <trkpt lat="43.5748" lon="5.26185">
        <ele>234</ele>
        <time>2017-02-05T09:57:06Z</time>
      </trkpt>
      <trkpt lat="43.57481" lon="5.26175">
        <ele>233</ele>
        <time>2017-02-05T09:57:02Z</time>
      </trkpt>
      <trkpt lat="43.57482" lon="5.26167">
        <ele>233</ele>
        <time>2017-02-05T09:56:58Z</time>
      </trkpt>
      <trkpt lat="43.57484" lon="5.26161">
        <ele>233</ele>
        <time>2017-02-05T09:56:54Z</time>
      </trkpt>
      <trkpt lat="43.57486" lon="5.26154">
        <ele>233</ele>
        <time>2017-02-05T09:56:50Z</time>
      </trkpt>
      <trkpt lat="43.57488" lon="5.26144">
        <ele>233</ele>
        <time>2017-02-05T09:56:46Z</time>
      </trkpt>
      <trkpt lat="43.57489" lon="5.26136">
        <ele>233</ele>
        <time>2017-02-05T09:56:42Z</time>
      </trkpt>
      <trkpt lat="43.57489" lon="5.26121">
        <ele>232</ele>
        <time>2017-02-05T09:56:38Z</time>
      </trkpt>
      <trkpt lat="43.5749" lon="5.2611">
        <ele>232</ele>
        <time>2017-02-05T09:56:34Z</time>
      </trkpt>
      <trkpt lat="43.57491" lon="5.26102">
        <ele>231</ele>
        <time>2017-02-05T09:56:30Z</time>
      </trkpt>
      <trkpt lat="43.57492" lon="5.26094">
        <ele>231</ele>
        <time>2017-02-05T09:56:26Z</time>
      </trkpt>
      <trkpt lat="43.57492" lon="5.26087">
        <ele>230</ele>
        <time>2017-02-05T09:56:22Z</time>
      </trkpt>
      <trkpt lat="43.57494" lon="5.2608">
        <ele>229</ele>
        <time>2017-02-05T09:56:18Z</time>
      </trkpt>
      <trkpt lat="43.57496" lon="5.26067">
        <ele>229</ele>
        <time>2017-02-05T09:56:14Z</time>
      </trkpt>
      <trkpt lat="43.57501" lon="5.26054">
        <ele>228</ele>
        <time>2017-02-05T09:56:10Z</time>
      </trkpt>
      <trkpt lat="43.57502" lon="5.26047">
        <ele>228</ele>
        <time>2017-02-05T09:56:06Z</time>
      </trkpt>
      <trkpt lat="43.57503" lon="5.26043">
        <ele>228</ele>
        <time>2017-02-05T09:56:02Z</time>
      </trkpt>
      <trkpt lat="43.57503" lon="5.26035">
        <ele>228</ele>
        <time>2017-02-05T09:55:58Z</time>
      </trkpt>
      <trkpt lat="43.57504" lon="5.26026">
        <ele>228</ele>
        <time>2017-02-05T09:55:54Z</time>
      </trkpt>
      <trkpt lat="43.57503" lon="5.2602">
        <ele>228</ele>
        <time>2017-02-05T09:55:50Z</time>
      </trkpt>
      <trkpt lat="43.57505" lon="5.26012">
        <ele>228</ele>
        <time>2017-02-05T09:55:46Z</time>
      </trkpt>
      <trkpt lat="43.57507" lon="5.25999">
        <ele>229</ele>
        <time>2017-02-05T09:55:42Z</time>
      </trkpt>
      <trkpt lat="43.57506" lon="5.25989">
        <ele>229</ele>
        <time>2017-02-05T09:55:38Z</time>
      </trkpt>
      <trkpt lat="43.57508" lon="5.25978">
        <ele>230</ele>
        <time>2017-02-05T09:55:34Z</time>
      </trkpt>
      <trkpt lat="43.57511" lon="5.25969">
        <ele>230</ele>
        <time>2017-02-05T09:55:30Z</time>
      </trkpt>
      <trkpt lat="43.57513" lon="5.25958">
        <ele>231</ele>
        <time>2017-02-05T09:55:26Z</time>
      </trkpt>
      <trkpt lat="43.57512" lon="5.25947">
        <ele>232</ele>
        <time>2017-02-05T09:55:22Z</time>
      </trkpt>
      <trkpt lat="43.5751" lon="5.25937">
        <ele>232</ele>
        <time>2017-02-05T09:55:18Z</time>
      </trkpt>
      <trkpt lat="43.57508" lon="5.25925">
        <ele>233</ele>
        <time>2017-02-05T09:55:14Z</time>
      </trkpt>
      <trkpt lat="43.57508" lon="5.25915">
        <ele>234</ele>
        <time>2017-02-05T09:55:10Z</time>
      </trkpt>
      <trkpt lat="43.57506" lon="5.25903">
        <ele>234</ele>
        <time>2017-02-05T09:55:06Z</time>
      </trkpt>
      <trkpt lat="43.57504" lon="5.25891">
        <ele>234</ele>
        <time>2017-02-05T09:55:02Z</time>
      </trkpt>
      <trkpt lat="43.57502" lon="5.25879">
        <ele>235</ele>
        <time>2017-02-05T09:54:58Z</time>
      </trkpt>
      <trkpt lat="43.57502" lon="5.25867">
        <ele>235</ele>
        <time>2017-02-05T09:54:54Z</time>
      </trkpt>
      <trkpt lat="43.57502" lon="5.25855">
        <ele>235</ele>
        <time>2017-02-05T09:54:50Z</time>
      </trkpt>
      <trkpt lat="43.57501" lon="5.25845">
        <ele>235</ele>
        <time>2017-02-05T09:54:46Z</time>
      </trkpt>
      <trkpt lat="43.575" lon="5.25833">
        <ele>235</ele>
        <time>2017-02-05T09:54:42Z</time>
      </trkpt>
      <trkpt lat="43.57499" lon="5.25824">
        <ele>235</ele>
        <time>2017-02-05T09:54:38Z</time>
      </trkpt>
      <trkpt lat="43.57498" lon="5.25809">
        <ele>236</ele>
        <time>2017-02-05T09:54:34Z</time>
      </trkpt>
      <trkpt lat="43.57498" lon="5.25797">
        <ele>236</ele>
        <time>2017-02-05T09:54:30Z</time>
      </trkpt>
      <trkpt lat="43.57497" lon="5.25787">
        <ele>236</ele>
        <time>2017-02-05T09:54:26Z</time>
      </trkpt>
      <trkpt lat="43.57496" lon="5.25773">
        <ele>237</ele>
        <time>2017-02-05T09:54:22Z</time>
      </trkpt>
      <trkpt lat="43.57494" lon="5.25763">
        <ele>237</ele>
        <time>2017-02-05T09:54:18Z</time>
      </trkpt>
      <trkpt lat="43.57494" lon="5.25753">
        <ele>238</ele>
        <time>2017-02-05T09:54:14Z</time>
      </trkpt>
      <trkpt lat="43.57493" lon="5.25745">
        <ele>238</ele>
        <time>2017-02-05T09:54:10Z</time>
      </trkpt>
      <trkpt lat="43.57491" lon="5.25736">
        <ele>238</ele>
        <time>2017-02-05T09:54:06Z</time>
      </trkpt>
      <trkpt lat="43.57491" lon="5.25726">
        <ele>239</ele>
        <time>2017-02-05T09:54:02Z</time>
      </trkpt>
      <trkpt lat="43.57492" lon="5.25716">
        <ele>239</ele>
        <time>2017-02-05T09:53:58Z</time>
      </trkpt>
      <trkpt lat="43.57493" lon="5.25705">
        <ele>240</ele>
        <time>2017-02-05T09:53:54Z</time>
      </trkpt>
      <trkpt lat="43.57493" lon="5.25695">
        <ele>240</ele>
        <time>2017-02-05T09:53:50Z</time>
      </trkpt>
      <trkpt lat="43.57492" lon="5.25682">
        <ele>240</ele>
        <time>2017-02-05T09:53:46Z</time>
      </trkpt>
      <trkpt lat="43.57493" lon="5.25675">
        <ele>240</ele>
        <time>2017-02-05T09:53:42Z</time>
      </trkpt>
      <trkpt lat="43.57495" lon="5.25663">
        <ele>240</ele>
        <time>2017-02-05T09:53:38Z</time>
      </trkpt>
      <trkpt lat="43.57496" lon="5.25654">
        <ele>240</ele>
        <time>2017-02-05T09:53:34Z</time>
      </trkpt>
      <trkpt lat="43.57499" lon="5.25639">
        <ele>240</ele>
        <time>2017-02-05T09:53:30Z</time>
      </trkpt>
      <trkpt lat="43.57501" lon="5.25629">
        <ele>240</ele>
        <time>2017-02-05T09:53:26Z</time>
      </trkpt>
      <trkpt lat="43.57502" lon="5.25618">
        <ele>240</ele>
        <time>2017-02-05T09:53:22Z</time>
      </trkpt>
      <trkpt lat="43.57504" lon="5.25604">
        <ele>240</ele>
        <time>2017-02-05T09:53:18Z</time>
      </trkpt>
      <trkpt lat="43.57504" lon="5.25596">
        <ele>239</ele>
        <time>2017-02-05T09:53:14Z</time>
      </trkpt>
      <trkpt lat="43.57502" lon="5.25583">
        <ele>239</ele>
        <time>2017-02-05T09:53:10Z</time>
      </trkpt>
      <trkpt lat="43.57497" lon="5.25573">
        <ele>238</ele>
        <time>2017-02-05T09:53:06Z</time>
      </trkpt>
      <trkpt lat="43.57493" lon="5.25568">
        <ele>238</ele>
        <time>2017-02-05T09:53:02Z</time>
      </trkpt>
      <trkpt lat="43.57484" lon="5.25564">
        <ele>238</ele>
        <time>2017-02-05T09:52:58Z</time>
      </trkpt>
      <trkpt lat="43.57477" lon="5.25563">
        <ele>237</ele>
        <time>2017-02-05T09:52:54Z</time>
      </trkpt>
      <trkpt lat="43.57469" lon="5.25559">
        <ele>237</ele>
        <time>2017-02-05T09:52:50Z</time>
      </trkpt>
      <trkpt lat="43.57461" lon="5.25553">
        <ele>237</ele>
        <time>2017-02-05T09:52:46Z</time>
      </trkpt>
      <trkpt lat="43.57454" lon="5.25552">
        <ele>236</ele>
        <time>2017-02-05T09:52:42Z</time>
      </trkpt>
      <trkpt lat="43.57446" lon="5.25556">
        <ele>236</ele>
        <time>2017-02-05T09:52:38Z</time>
      </trkpt>
      <trkpt lat="43.57438" lon="5.25562">
        <ele>235</ele>
        <time>2017-02-05T09:52:34Z</time>
      </trkpt>
      <trkpt lat="43.57432" lon="5.25563">
        <ele>235</ele>
        <time>2017-02-05T09:52:30Z</time>
      </trkpt>
      <trkpt lat="43.57424" lon="5.25557">
        <ele>235</ele>
        <time>2017-02-05T09:52:26Z</time>
      </trkpt>
      <trkpt lat="43.57418" lon="5.25553">
        <ele>235</ele>
        <time>2017-02-05T09:52:22Z</time>
      </trkpt>
      <trkpt lat="43.57412" lon="5.25549">
        <ele>235</ele>
        <time>2017-02-05T09:52:18Z</time>
      </trkpt>
      <trkpt lat="43.57402" lon="5.25551">
        <ele>235</ele>
        <time>2017-02-05T09:52:14Z</time>
      </trkpt>
      <trkpt lat="43.57395" lon="5.25554">
        <ele>235</ele>
        <time>2017-02-05T09:52:10Z</time>
      </trkpt>
      <trkpt lat="43.5739" lon="5.25556">
        <ele>235</ele>
        <time>2017-02-05T09:52:06Z</time>
      </trkpt>
      <trkpt lat="43.5738" lon="5.25557">
        <ele>235</ele>
        <time>2017-02-05T09:52:02Z</time>
      </trkpt>
      <trkpt lat="43.57373" lon="5.25559">
        <ele>235</ele>
        <time>2017-02-05T09:51:58Z</time>
      </trkpt>
      <trkpt lat="43.57364" lon="5.2556">
        <ele>235</ele>
        <time>2017-02-05T09:51:54Z</time>
      </trkpt>
      <trkpt lat="43.57354" lon="5.25563">
        <ele>235</ele>
        <time>2017-02-05T09:51:50Z</time>
      </trkpt>
      <trkpt lat="43.57348" lon="5.25567">
        <ele>235</ele>
        <time>2017-02-05T09:51:46Z</time>
      </trkpt>
      <trkpt lat="43.5734" lon="5.25569">
        <ele>235</ele>
        <time>2017-02-05T09:51:42Z</time>
      </trkpt>
      <trkpt lat="43.57333" lon="5.25572">
        <ele>235</ele>
        <time>2017-02-05T09:51:38Z</time>
      </trkpt>
      <trkpt lat="43.57326" lon="5.25574">
        <ele>235</ele>
        <time>2017-02-05T09:51:34Z</time>
      </trkpt>
      <trkpt lat="43.57318" lon="5.25577">
        <ele>235</ele>
        <time>2017-02-05T09:51:30Z</time>
      </trkpt>
      <trkpt lat="43.57311" lon="5.25579">
        <ele>234</ele>
        <time>2017-02-05T09:51:26Z</time>
      </trkpt>
      <trkpt lat="43.573" lon="5.25582">
        <ele>234</ele>
        <time>2017-02-05T09:51:22Z</time>
      </trkpt>
      <trkpt lat="43.57295" lon="5.25583">
        <ele>234</ele>
        <time>2017-02-05T09:51:18Z</time>
      </trkpt>
      <trkpt lat="43.57287" lon="5.25585">
        <ele>234</ele>
        <time>2017-02-05T09:51:14Z</time>
      </trkpt>
      <trkpt lat="43.57277" lon="5.25587">
        <ele>234</ele>
        <time>2017-02-05T09:51:10Z</time>
      </trkpt>
      <trkpt lat="43.57271" lon="5.25589">
        <ele>233</ele>
        <time>2017-02-05T09:51:06Z</time>
      </trkpt>
      <trkpt lat="43.57265" lon="5.2559">
        <ele>233</ele>
        <time>2017-02-05T09:51:02Z</time>
      </trkpt>
      <trkpt lat="43.57254" lon="5.25591">
        <ele>233</ele>
        <time>2017-02-05T09:50:58Z</time>
      </trkpt>
      <trkpt lat="43.57247" lon="5.25594">
        <ele>233</ele>
        <time>2017-02-05T09:50:54Z</time>
      </trkpt>
      <trkpt lat="43.57242" lon="5.25595">
        <ele>233</ele>
        <time>2017-02-05T09:50:50Z</time>
      </trkpt>
      <trkpt lat="43.57233" lon="5.25594">
        <ele>233</ele>
        <time>2017-02-05T09:50:46Z</time>
      </trkpt>
      <trkpt lat="43.57226" lon="5.25594">
        <ele>233</ele>
        <time>2017-02-05T09:50:42Z</time>
      </trkpt>
      <trkpt lat="43.57221" lon="5.25595">
        <ele>233</ele>
        <time>2017-02-05T09:50:38Z</time>
      </trkpt>
      <trkpt lat="43.57211" lon="5.25597">
        <ele>233</ele>
        <time>2017-02-05T09:50:34Z</time>
      </trkpt>
      <trkpt lat="43.572" lon="5.25599">
        <ele>233</ele>
        <time>2017-02-05T09:50:30Z</time>
      </trkpt>
      <trkpt lat="43.57196" lon="5.25602">
        <ele>233</ele>
        <time>2017-02-05T09:50:26Z</time>
      </trkpt>
      <trkpt lat="43.5719" lon="5.25601">
        <ele>234</ele>
        <time>2017-02-05T09:50:22Z</time>
      </trkpt>
      <trkpt lat="43.57179" lon="5.25602">
        <ele>234</ele>
        <time>2017-02-05T09:50:18Z</time>
      </trkpt>
      <trkpt lat="43.57173" lon="5.25603">
        <ele>234</ele>
        <time>2017-02-05T09:50:14Z</time>
      </trkpt>
      <trkpt lat="43.57165" lon="5.25604">
        <ele>234</ele>
        <time>2017-02-05T09:50:10Z</time>
      </trkpt>
      <trkpt lat="43.57156" lon="5.25607">
        <ele>233</ele>
        <time>2017-02-05T09:50:06Z</time>
      </trkpt>
      <trkpt lat="43.57151" lon="5.25609">
        <ele>233</ele>
        <time>2017-02-05T09:50:02Z</time>
      </trkpt>
      <trkpt lat="43.57145" lon="5.25609">
        <ele>233</ele>
        <time>2017-02-05T09:49:58Z</time>
      </trkpt>
      <trkpt lat="43.57135" lon="5.25611">
        <ele>233</ele>
        <time>2017-02-05T09:49:54Z</time>
      </trkpt>
      <trkpt lat="43.57125" lon="5.25615">
        <ele>233</ele>
        <time>2017-02-05T09:49:50Z</time>
      </trkpt>
      <trkpt lat="43.57119" lon="5.25616">
        <ele>233</ele>
        <time>2017-02-05T09:49:46Z</time>
      </trkpt>
      <trkpt lat="43.57114" lon="5.25616">
        <ele>233</ele>
        <time>2017-02-05T09:49:42Z</time>
      </trkpt>
      <trkpt lat="43.57104" lon="5.25617">
        <ele>232</ele>
        <time>2017-02-05T09:49:38Z</time>
      </trkpt>
      <trkpt lat="43.57097" lon="5.25619">
        <ele>232</ele>
        <time>2017-02-05T09:49:34Z</time>
      </trkpt>
      <trkpt lat="43.57091" lon="5.25623">
        <ele>233</ele>
        <time>2017-02-05T09:49:30Z</time>
      </trkpt>
      <trkpt lat="43.57083" lon="5.25624">
        <ele>232</ele>
        <time>2017-02-05T09:49:26Z</time>
      </trkpt>
      <trkpt lat="43.57078" lon="5.25628">
        <ele>233</ele>
        <time>2017-02-05T09:49:22Z</time>
      </trkpt>
      <trkpt lat="43.57068" lon="5.2563">
        <ele>233</ele>
        <time>2017-02-05T09:49:18Z</time>
      </trkpt>
      <trkpt lat="43.57062" lon="5.25631">
        <ele>233</ele>
        <time>2017-02-05T09:49:14Z</time>
      </trkpt>
      <trkpt lat="43.57052" lon="5.25631">
        <ele>233</ele>
        <time>2017-02-05T09:49:10Z</time>
      </trkpt>
      <trkpt lat="43.57046" lon="5.25628">
        <ele>233</ele>
        <time>2017-02-05T09:49:06Z</time>
      </trkpt>
      <trkpt lat="43.57039" lon="5.2562">
        <ele>234</ele>
        <time>2017-02-05T09:49:02Z</time>
      </trkpt>
      <trkpt lat="43.57034" lon="5.25613">
        <ele>234</ele>
        <time>2017-02-05T09:48:58Z</time>
      </trkpt>
      <trkpt lat="43.57028" lon="5.25603">
        <ele>234</ele>
        <time>2017-02-05T09:48:54Z</time>
      </trkpt>
      <trkpt lat="43.57021" lon="5.25597">
        <ele>234</ele>
        <time>2017-02-05T09:48:50Z</time>
      </trkpt>
      <trkpt lat="43.57011" lon="5.25592">
        <ele>235</ele>
        <time>2017-02-05T09:48:46Z</time>
      </trkpt>
      <trkpt lat="43.57004" lon="5.25596">
        <ele>235</ele>
        <time>2017-02-05T09:48:42Z</time>
      </trkpt>
      <trkpt lat="43.56996" lon="5.25602">
        <ele>235</ele>
        <time>2017-02-05T09:48:38Z</time>
      </trkpt>
      <trkpt lat="43.5699" lon="5.25605">
        <ele>236</ele>
        <time>2017-02-05T09:48:34Z</time>
      </trkpt>
      <trkpt lat="43.56981" lon="5.25609">
        <ele>236</ele>
        <time>2017-02-05T09:48:30Z</time>
      </trkpt>
      <trkpt lat="43.56975" lon="5.25614">
        <ele>236</ele>
        <time>2017-02-05T09:48:26Z</time>
      </trkpt>
      <trkpt lat="43.56968" lon="5.25623">
        <ele>236</ele>
        <time>2017-02-05T09:48:22Z</time>
      </trkpt>
      <trkpt lat="43.56961" lon="5.25631">
        <ele>236</ele>
        <time>2017-02-05T09:48:18Z</time>
      </trkpt>
      <trkpt lat="43.56954" lon="5.25636">
        <ele>236</ele>
        <time>2017-02-05T09:48:14Z</time>
      </trkpt>
      <trkpt lat="43.56947" lon="5.25638">
        <ele>236</ele>
        <time>2017-02-05T09:48:10Z</time>
      </trkpt>
      <trkpt lat="43.56938" lon="5.2564">
        <ele>236</ele>
        <time>2017-02-05T09:48:06Z</time>
      </trkpt>
      <trkpt lat="43.56933" lon="5.2564">
        <ele>236</ele>
        <time>2017-02-05T09:48:02Z</time>
      </trkpt>
      <trkpt lat="43.56922" lon="5.2564">
        <ele>236</ele>
        <time>2017-02-05T09:47:58Z</time>
      </trkpt>
      <trkpt lat="43.56915" lon="5.25638">
        <ele>236</ele>
        <time>2017-02-05T09:47:54Z</time>
      </trkpt>
      <trkpt lat="43.56907" lon="5.25635">
        <ele>235</ele>
        <time>2017-02-05T09:47:50Z</time>
      </trkpt>
      <trkpt lat="43.56899" lon="5.25637">
        <ele>236</ele>
        <time>2017-02-05T09:47:46Z</time>
      </trkpt>
      <trkpt lat="43.56891" lon="5.25638">
        <ele>236</ele>
        <time>2017-02-05T09:47:42Z</time>
      </trkpt>
      <trkpt lat="43.56884" lon="5.25632">
        <ele>236</ele>
        <time>2017-02-05T09:47:38Z</time>
      </trkpt>
      <trkpt lat="43.56878" lon="5.25623">
        <ele>236</ele>
        <time>2017-02-05T09:47:34Z</time>
      </trkpt>
      <trkpt lat="43.56871" lon="5.25617">
        <ele>237</ele>
        <time>2017-02-05T09:47:30Z</time>
      </trkpt>
      <trkpt lat="43.56863" lon="5.25613">
        <ele>238</ele>
        <time>2017-02-05T09:47:26Z</time>
      </trkpt>
      <trkpt lat="43.56855" lon="5.25609">
        <ele>238</ele>
        <time>2017-02-05T09:47:22Z</time>
      </trkpt>
      <trkpt lat="43.56848" lon="5.25607">
        <ele>239</ele>
        <time>2017-02-05T09:47:18Z</time>
      </trkpt>
      <trkpt lat="43.5684" lon="5.25603">
        <ele>241</ele>
        <time>2017-02-05T09:47:14Z</time>
      </trkpt>
      <trkpt lat="43.56833" lon="5.25602">
        <ele>242</ele>
        <time>2017-02-05T09:47:10Z</time>
      </trkpt>
      <trkpt lat="43.56828" lon="5.256">
        <ele>242</ele>
        <time>2017-02-05T09:47:06Z</time>
      </trkpt>
      <trkpt lat="43.56823" lon="5.25598">
        <ele>243</ele>
        <time>2017-02-05T09:47:02Z</time>
      </trkpt>
      <trkpt lat="43.56819" lon="5.25588">
        <ele>244</ele>
        <time>2017-02-05T09:46:58Z</time>
      </trkpt>
      <trkpt lat="43.56818" lon="5.25576">
        <ele>245</ele>
        <time>2017-02-05T09:46:54Z</time>
      </trkpt>
      <trkpt lat="43.56819" lon="5.25564">
        <ele>245</ele>
        <time>2017-02-05T09:46:50Z</time>
      </trkpt>
      <trkpt lat="43.5682" lon="5.2555">
        <ele>246</ele>
        <time>2017-02-05T09:46:46Z</time>
      </trkpt>
      <trkpt lat="43.56821" lon="5.25541">
        <ele>246</ele>
        <time>2017-02-05T09:46:42Z</time>
      </trkpt>
      <trkpt lat="43.56821" lon="5.25527">
        <ele>246</ele>
        <time>2017-02-05T09:46:38Z</time>
      </trkpt>
      <trkpt lat="43.56822" lon="5.25516">
        <ele>246</ele>
        <time>2017-02-05T09:46:34Z</time>
      </trkpt>
      <trkpt lat="43.56822" lon="5.25508">
        <ele>246</ele>
        <time>2017-02-05T09:46:30Z</time>
      </trkpt>
      <trkpt lat="43.56823" lon="5.25494">
        <ele>246</ele>
        <time>2017-02-05T09:46:26Z</time>
      </trkpt>
      <trkpt lat="43.56822" lon="5.25484">
        <ele>245</ele>
        <time>2017-02-05T09:46:22Z</time>
      </trkpt>
      <trkpt lat="43.56821" lon="5.25474">
        <ele>245</ele>
        <time>2017-02-05T09:46:18Z</time>
      </trkpt>
      <trkpt lat="43.5682" lon="5.2546">
        <ele>244</ele>
        <time>2017-02-05T09:46:14Z</time>
      </trkpt>
      <trkpt lat="43.56819" lon="5.25452">
        <ele>243</ele>
        <time>2017-02-05T09:46:10Z</time>
      </trkpt>
      <trkpt lat="43.56819" lon="5.25444">
        <ele>242</ele>
        <time>2017-02-05T09:46:06Z</time>
      </trkpt>
      <trkpt lat="43.56817" lon="5.25429">
        <ele>241</ele>
        <time>2017-02-05T09:46:02Z</time>
      </trkpt>
      <trkpt lat="43.56816" lon="5.25416">
        <ele>240</ele>
        <time>2017-02-05T09:45:58Z</time>
      </trkpt>
      <trkpt lat="43.56813" lon="5.25408">
        <ele>240</ele>
        <time>2017-02-05T09:45:54Z</time>
      </trkpt>
      <trkpt lat="43.56811" lon="5.25402">
        <ele>239</ele>
        <time>2017-02-05T09:45:50Z</time>
      </trkpt>
      <trkpt lat="43.56807" lon="5.25392">
        <ele>239</ele>
        <time>2017-02-05T09:45:46Z</time>
      </trkpt>
      <trkpt lat="43.56801" lon="5.2538">
        <ele>239</ele>
        <time>2017-02-05T09:45:42Z</time>
      </trkpt>
      <trkpt lat="43.56796" lon="5.25368">
        <ele>239</ele>
        <time>2017-02-05T09:45:38Z</time>
      </trkpt>
      <trkpt lat="43.56793" lon="5.25358">
        <ele>238</ele>
        <time>2017-02-05T09:45:34Z</time>
      </trkpt>
      <trkpt lat="43.56789" lon="5.2535">
        <ele>238</ele>
        <time>2017-02-05T09:45:30Z</time>
      </trkpt>
      <trkpt lat="43.56785" lon="5.25343">
        <ele>238</ele>
        <time>2017-02-05T09:45:26Z</time>
      </trkpt>
      <trkpt lat="43.56781" lon="5.25336">
        <ele>238</ele>
        <time>2017-02-05T09:45:22Z</time>
      </trkpt>
      <trkpt lat="43.56774" lon="5.25328">
        <ele>238</ele>
        <time>2017-02-05T09:45:18Z</time>
      </trkpt>
      <trkpt lat="43.56768" lon="5.25326">
        <ele>237</ele>
        <time>2017-02-05T09:45:14Z</time>
      </trkpt>
      <trkpt lat="43.56763" lon="5.25329">
        <ele>237</ele>
        <time>2017-02-05T09:45:10Z</time>
      </trkpt>
      <trkpt lat="43.56759" lon="5.25333">
        <ele>237</ele>
        <time>2017-02-05T09:45:06Z</time>
      </trkpt>
      <trkpt lat="43.56754" lon="5.25337">
        <ele>236</ele>
        <time>2017-02-05T09:45:02Z</time>
      </trkpt>
      <trkpt lat="43.56748" lon="5.25344">
        <ele>236</ele>
        <time>2017-02-05T09:44:58Z</time>
      </trkpt>
      <trkpt lat="43.56742" lon="5.25349">
        <ele>235</ele>
        <time>2017-02-05T09:44:54Z</time>
      </trkpt>
      <trkpt lat="43.56736" lon="5.25353">
        <ele>235</ele>
        <time>2017-02-05T09:44:50Z</time>
      </trkpt>
      <trkpt lat="43.5673" lon="5.25354">
        <ele>234</ele>
        <time>2017-02-05T09:44:46Z</time>
      </trkpt>
      <trkpt lat="43.56725" lon="5.25354">
        <ele>233</ele>
        <time>2017-02-05T09:44:42Z</time>
      </trkpt>
      <trkpt lat="43.56719" lon="5.25354">
        <ele>232</ele>
        <time>2017-02-05T09:44:38Z</time>
      </trkpt>
      <trkpt lat="43.56715" lon="5.25355">
        <ele>230</ele>
        <time>2017-02-05T09:44:34Z</time>
      </trkpt>
      <trkpt lat="43.56707" lon="5.25354">
        <ele>229</ele>
        <time>2017-02-05T09:44:30Z</time>
      </trkpt>
      <trkpt lat="43.56698" lon="5.25353">
        <ele>228</ele>
        <time>2017-02-05T09:44:26Z</time>
      </trkpt>
      <trkpt lat="43.56688" lon="5.25352">
        <ele>227</ele>
        <time>2017-02-05T09:44:22Z</time>
      </trkpt>
      <trkpt lat="43.56681" lon="5.25352">
        <ele>226</ele>
        <time>2017-02-05T09:44:18Z</time>
      </trkpt>
      <trkpt lat="43.56674" lon="5.25351">
        <ele>226</ele>
        <time>2017-02-05T09:44:14Z</time>
      </trkpt>
      <trkpt lat="43.56669" lon="5.2535">
        <ele>225</ele>
        <time>2017-02-05T09:44:10Z</time>
      </trkpt>
      <trkpt lat="43.56663" lon="5.2535">
        <ele>224</ele>
        <time>2017-02-05T09:44:06Z</time>
      </trkpt>
      <trkpt lat="43.56656" lon="5.25349">
        <ele>223</ele>
        <time>2017-02-05T09:44:02Z</time>
      </trkpt>
      <trkpt lat="43.56651" lon="5.25349">
        <ele>222</ele>
        <time>2017-02-05T09:43:58Z</time>
      </trkpt>
      <trkpt lat="43.56645" lon="5.25349">
        <ele>222</ele>
        <time>2017-02-05T09:43:54Z</time>
      </trkpt>
      <trkpt lat="43.56639" lon="5.25349">
        <ele>222</ele>
        <time>2017-02-05T09:43:50Z</time>
      </trkpt>
      <trkpt lat="43.56633" lon="5.2535">
        <ele>221</ele>
        <time>2017-02-05T09:43:46Z</time>
      </trkpt>
      <trkpt lat="43.56626" lon="5.25352">
        <ele>221</ele>
        <time>2017-02-05T09:43:42Z</time>
      </trkpt>
      <trkpt lat="43.56617" lon="5.25353">
        <ele>221</ele>
        <time>2017-02-05T09:43:38Z</time>
      </trkpt>
      <trkpt lat="43.5661" lon="5.25356">
        <ele>220</ele>
        <time>2017-02-05T09:43:34Z</time>
      </trkpt>
      <trkpt lat="43.56606" lon="5.25358">
        <ele>220</ele>
        <time>2017-02-05T09:43:30Z</time>
      </trkpt>
      <trkpt lat="43.566" lon="5.2536">
        <ele>219</ele>
        <time>2017-02-05T09:43:26Z</time>
      </trkpt>
      <trkpt lat="43.56593" lon="5.25361">
        <ele>219</ele>
        <time>2017-02-05T09:43:22Z</time>
      </trkpt>
      <trkpt lat="43.56589" lon="5.25362">
        <ele>218</ele>
        <time>2017-02-05T09:43:18Z</time>
      </trkpt>
      <trkpt lat="43.56584" lon="5.25363">
        <ele>217</ele>
        <time>2017-02-05T09:43:14Z</time>
      </trkpt>
      <trkpt lat="43.56579" lon="5.25364">
        <ele>216</ele>
        <time>2017-02-05T09:43:10Z</time>
      </trkpt>
      <trkpt lat="43.56573" lon="5.25364">
        <ele>216</ele>
        <time>2017-02-05T09:43:06Z</time>
      </trkpt>
      <trkpt lat="43.56569" lon="5.25363">
        <ele>215</ele>
        <time>2017-02-05T09:43:02Z</time>
      </trkpt>
      <trkpt lat="43.56565" lon="5.25363">
        <ele>214</ele>
        <time>2017-02-05T09:42:58Z</time>
      </trkpt>
      <trkpt lat="43.5656" lon="5.25363">
        <ele>213</ele>
        <time>2017-02-05T09:42:54Z</time>
      </trkpt>
      <trkpt lat="43.56556" lon="5.25363">
        <ele>211</ele>
        <time>2017-02-05T09:42:50Z</time>
      </trkpt>
      <trkpt lat="43.56551" lon="5.25362">
        <ele>210</ele>
        <time>2017-02-05T09:42:46Z</time>
      </trkpt>
      <trkpt lat="43.56547" lon="5.25362">
        <ele>209</ele>
        <time>2017-02-05T09:42:42Z</time>
      </trkpt>
      <trkpt lat="43.56539" lon="5.25362">
        <ele>208</ele>
        <time>2017-02-05T09:42:38Z</time>
      </trkpt>
      <trkpt lat="43.56533" lon="5.25363">
        <ele>207</ele>
        <time>2017-02-05T09:42:34Z</time>
      </trkpt>
      <trkpt lat="43.56528" lon="5.25364">
        <ele>206</ele>
        <time>2017-02-05T09:42:30Z</time>
      </trkpt>
      <trkpt lat="43.56522" lon="5.25365">
        <ele>205</ele>
        <time>2017-02-05T09:42:26Z</time>
      </trkpt>
      <trkpt lat="43.56516" lon="5.25367">
        <ele>205</ele>
        <time>2017-02-05T09:42:22Z</time>
      </trkpt>
      <trkpt lat="43.5651" lon="5.25368">
        <ele>204</ele>
        <time>2017-02-05T09:42:18Z</time>
      </trkpt>
      <trkpt lat="43.56505" lon="5.25369">
        <ele>203</ele>
        <time>2017-02-05T09:42:14Z</time>
      </trkpt>
      <trkpt lat="43.56498" lon="5.25369">
        <ele>203</ele>
        <time>2017-02-05T09:42:10Z</time>
      </trkpt>
      <trkpt lat="43.56492" lon="5.25371">
        <ele>203</ele>
        <time>2017-02-05T09:42:06Z</time>
      </trkpt>
      <trkpt lat="43.56485" lon="5.25372">
        <ele>202</ele>
        <time>2017-02-05T09:42:02Z</time>
      </trkpt>
      <trkpt lat="43.56479" lon="5.25374">
        <ele>202</ele>
        <time>2017-02-05T09:41:58Z</time>
      </trkpt>
      <trkpt lat="43.56473" lon="5.25373">
        <ele>202</ele>
        <time>2017-02-05T09:41:54Z</time>
      </trkpt>
      <trkpt lat="43.56466" lon="5.2537">
        <ele>202</ele>
        <time>2017-02-05T09:41:50Z</time>
      </trkpt>
      <trkpt lat="43.56462" lon="5.2537">
        <ele>202</ele>
        <time>2017-02-05T09:41:46Z</time>
      </trkpt>
      <trkpt lat="43.56457" lon="5.2537">
        <ele>202</ele>
        <time>2017-02-05T09:41:42Z</time>
      </trkpt>
      <trkpt lat="43.56451" lon="5.25371">
        <ele>202</ele>
        <time>2017-02-05T09:41:38Z</time>
      </trkpt>
      <trkpt lat="43.56446" lon="5.2537">
        <ele>202</ele>
        <time>2017-02-05T09:41:34Z</time>
      </trkpt>
      <trkpt lat="43.56441" lon="5.25371">
        <ele>202</ele>
        <time>2017-02-05T09:41:30Z</time>
      </trkpt>
      <trkpt lat="43.56437" lon="5.25372">
        <ele>201</ele>
        <time>2017-02-05T09:41:26Z</time>
      </trkpt>
      <trkpt lat="43.56433" lon="5.25373">
        <ele>201</ele>
        <time>2017-02-05T09:41:22Z</time>
      </trkpt>
      <trkpt lat="43.56428" lon="5.25378">
        <ele>200</ele>
        <time>2017-02-05T09:41:18Z</time>
      </trkpt>
      <trkpt lat="43.56423" lon="5.25385">
        <ele>199</ele>
        <time>2017-02-05T09:41:14Z</time>
      </trkpt>
      <trkpt lat="43.56422" lon="5.25392">
        <ele>198</ele>
        <time>2017-02-05T09:41:10Z</time>
      </trkpt>
      <trkpt lat="43.56421" lon="5.25403">
        <ele>197</ele>
        <time>2017-02-05T09:41:06Z</time>
      </trkpt>
      <trkpt lat="43.5642" lon="5.25412">
        <ele>196</ele>
        <time>2017-02-05T09:41:02Z</time>
      </trkpt>
      <trkpt lat="43.56417" lon="5.25418">
        <ele>195</ele>
        <time>2017-02-05T09:40:58Z</time>
      </trkpt>
      <trkpt lat="43.56413" lon="5.25423">
        <ele>194</ele>
        <time>2017-02-05T09:40:54Z</time>
      </trkpt>
      <trkpt lat="43.5641" lon="5.25427">
        <ele>192</ele>
        <time>2017-02-05T09:40:50Z</time>
      </trkpt>
      <trkpt lat="43.56405" lon="5.25431">
        <ele>191</ele>
        <time>2017-02-05T09:40:46Z</time>
      </trkpt>
      <trkpt lat="43.56401" lon="5.25433">
        <ele>190</ele>
        <time>2017-02-05T09:40:42Z</time>
      </trkpt>
      <trkpt lat="43.56397" lon="5.25436">
        <ele>189</ele>
        <time>2017-02-05T09:40:38Z</time>
      </trkpt>
      <trkpt lat="43.56393" lon="5.25439">
        <ele>188</ele>
        <time>2017-02-05T09:40:34Z</time>
      </trkpt>
      <trkpt lat="43.56389" lon="5.25442">
        <ele>186</ele>
        <time>2017-02-05T09:40:30Z</time>
      </trkpt>
      <trkpt lat="43.56385" lon="5.25444">
        <ele>185</ele>
        <time>2017-02-05T09:40:26Z</time>
      </trkpt>
      <trkpt lat="43.56381" lon="5.25447">
        <ele>184</ele>
        <time>2017-02-05T09:40:22Z</time>
      </trkpt>
      <trkpt lat="43.56377" lon="5.2545">
        <ele>182</ele>
        <time>2017-02-05T09:40:18Z</time>
      </trkpt>
      <trkpt lat="43.56373" lon="5.25454">
        <ele>181</ele>
        <time>2017-02-05T09:40:14Z</time>
      </trkpt>
      <trkpt lat="43.56368" lon="5.25458">
        <ele>180</ele>
        <time>2017-02-05T09:40:10Z</time>
      </trkpt>
      <trkpt lat="43.56364" lon="5.2546">
        <ele>179</ele>
        <time>2017-02-05T09:40:06Z</time>
      </trkpt>
      <trkpt lat="43.5636" lon="5.25462">
        <ele>178</ele>
        <time>2017-02-05T09:40:02Z</time>
      </trkpt>
      <trkpt lat="43.56356" lon="5.25464">
        <ele>177</ele>
        <time>2017-02-05T09:39:58Z</time>
      </trkpt>
      <trkpt lat="43.56352" lon="5.25466">
        <ele>176</ele>
        <time>2017-02-05T09:39:54Z</time>
      </trkpt>
      <trkpt lat="43.56348" lon="5.25467">
        <ele>175</ele>
        <time>2017-02-05T09:39:50Z</time>
      </trkpt>
      <trkpt lat="43.56343" lon="5.25468">
        <ele>174</ele>
        <time>2017-02-05T09:39:46Z</time>
      </trkpt>
      <trkpt lat="43.56339" lon="5.25474">
        <ele>172</ele>
        <time>2017-02-05T09:39:42Z</time>
      </trkpt>
      <trkpt lat="43.56335" lon="5.2548">
        <ele>171</ele>
        <time>2017-02-05T09:39:38Z</time>
      </trkpt>
      <trkpt lat="43.56333" lon="5.25487">
        <ele>170</ele>
        <time>2017-02-05T09:39:34Z</time>
      </trkpt>
      <trkpt lat="43.56329" lon="5.25492">
        <ele>169</ele>
        <time>2017-02-05T09:39:30Z</time>
      </trkpt>
      <trkpt lat="43.56326" lon="5.25496">
        <ele>168</ele>
        <time>2017-02-05T09:39:26Z</time>
      </trkpt>
      <trkpt lat="43.56322" lon="5.25501">
        <ele>167</ele>
        <time>2017-02-05T09:39:22Z</time>
      </trkpt>
      <trkpt lat="43.56318" lon="5.25505">
        <ele>166</ele>
        <time>2017-02-05T09:39:18Z</time>
      </trkpt>
      <trkpt lat="43.56314" lon="5.25509">
        <ele>165</ele>
        <time>2017-02-05T09:39:14Z</time>
      </trkpt>
      <trkpt lat="43.56311" lon="5.25512">
        <ele>164</ele>
        <time>2017-02-05T09:39:10Z</time>
      </trkpt>
      <trkpt lat="43.56307" lon="5.25516">
        <ele>163</ele>
        <time>2017-02-05T09:39:06Z</time>
      </trkpt>
      <trkpt lat="43.56303" lon="5.2552">
        <ele>161</ele>
        <time>2017-02-05T09:39:02Z</time>
      </trkpt>
      <trkpt lat="43.563" lon="5.25526">
        <ele>160</ele>
        <time>2017-02-05T09:38:58Z</time>
      </trkpt>
      <trkpt lat="43.56295" lon="5.25531">
        <ele>160</ele>
        <time>2017-02-05T09:38:54Z</time>
      </trkpt>
      <trkpt lat="43.56292" lon="5.25538">
        <ele>159</ele>
        <time>2017-02-05T09:38:50Z</time>
      </trkpt>
      <trkpt lat="43.56288" lon="5.25545">
        <ele>158</ele>
        <time>2017-02-05T09:38:46Z</time>
      </trkpt>
      <trkpt lat="43.56284" lon="5.25551">
        <ele>156</ele>
        <time>2017-02-05T09:38:42Z</time>
      </trkpt>
      <trkpt lat="43.5628" lon="5.25555">
        <ele>155</ele>
        <time>2017-02-05T09:38:38Z</time>
      </trkpt>
      <trkpt lat="43.56275" lon="5.25558">
        <ele>155</ele>
        <time>2017-02-05T09:38:34Z</time>
      </trkpt>
      <trkpt lat="43.56269" lon="5.25562">
        <ele>154</ele>
        <time>2017-02-05T09:38:30Z</time>
      </trkpt>
      <trkpt lat="43.56266" lon="5.25566">
        <ele>153</ele>
        <time>2017-02-05T09:38:26Z</time>
      </trkpt>
      <trkpt lat="43.56262" lon="5.25569">
        <ele>152</ele>
        <time>2017-02-05T09:38:22Z</time>
      </trkpt>
      <trkpt lat="43.56258" lon="5.25571">
        <ele>152</ele>
        <time>2017-02-05T09:38:18Z</time>
      </trkpt>
      <trkpt lat="43.56254" lon="5.25574">
        <ele>151</ele>
        <time>2017-02-05T09:38:14Z</time>
      </trkpt>
      <trkpt lat="43.5625" lon="5.25577">
        <ele>150</ele>
        <time>2017-02-05T09:38:10Z</time>
      </trkpt>
      <trkpt lat="43.56246" lon="5.25582">
        <ele>150</ele>
        <time>2017-02-05T09:38:06Z</time>
      </trkpt>
      <trkpt lat="43.56243" lon="5.25589">
        <ele>149</ele>
        <time>2017-02-05T09:38:02Z</time>
      </trkpt>
      <trkpt lat="43.56238" lon="5.25596">
        <ele>149</ele>
        <time>2017-02-05T09:37:58Z</time>
      </trkpt>
      <trkpt lat="43.56235" lon="5.25604">
        <ele>148</ele>
        <time>2017-02-05T09:37:54Z</time>
      </trkpt>
      <trkpt lat="43.56233" lon="5.25611">
        <ele>147</ele>
        <time>2017-02-05T09:37:50Z</time>
      </trkpt>
      <trkpt lat="43.56231" lon="5.25615">
        <ele>146</ele>
        <time>2017-02-05T09:37:46Z</time>
      </trkpt>
      <trkpt lat="43.56231" lon="5.25617">
        <ele>145</ele>
        <time>2017-02-05T09:37:42Z</time>
      </trkpt>
      <trkpt lat="43.5623" lon="5.2562">
        <ele>144</ele>
        <time>2017-02-05T09:37:38Z</time>
      </trkpt>
      <trkpt lat="43.56226" lon="5.25626">
        <ele>143</ele>
        <time>2017-02-05T09:37:34Z</time>
      </trkpt>
      <trkpt lat="43.56225" lon="5.25631">
        <ele>142</ele>
        <time>2017-02-05T09:37:30Z</time>
      </trkpt>
      <trkpt lat="43.56222" lon="5.25638">
        <ele>141</ele>
        <time>2017-02-05T09:37:26Z</time>
      </trkpt>
      <trkpt lat="43.56218" lon="5.25647">
        <ele>140</ele>
        <time>2017-02-05T09:37:22Z</time>
      </trkpt>
      <trkpt lat="43.56213" lon="5.25657">
        <ele>140</ele>
        <time>2017-02-05T09:37:18Z</time>
      </trkpt>
      <trkpt lat="43.56208" lon="5.25666">
        <ele>139</ele>
        <time>2017-02-05T09:37:14Z</time>
      </trkpt>
      <trkpt lat="43.56186" lon="5.25769">
        <ele>136.4</ele>
      </trkpt>
      <trkpt lat="43.56173" lon="5.258">
        <ele>133.1</ele>
      </trkpt>
      <trkpt lat="43.56148" lon="5.2579">
        <ele>130.4</ele>
      </trkpt>
      <trkpt lat="43.56126" lon="5.25796">
        <ele>127.6</ele>
      </trkpt>
      <trkpt lat="43.56103" lon="5.25815">
        <ele>124.1</ele>
      </trkpt>
      <trkpt lat="43.56095" lon="5.25817">
        <ele>123.1</ele>
      </trkpt>
      <trkpt lat="43.561" lon="5.25835">
        <ele>122.9</ele>
      </trkpt>
      <trkpt lat="43.56106" lon="5.2587">
        <ele>124.9</ele>
      </trkpt>
      <trkpt lat="43.56108" lon="5.25885">
        <ele>125.7</ele>
      </trkpt>
      <trkpt lat="43.56122" lon="5.25924">
        <ele>128.7</ele>
      </trkpt>
      <trkpt lat="43.5615" lon="5.2598">
        <ele>132.7</ele>
      </trkpt>
      <trkpt lat="43.56166" lon="5.2603">
        <ele>135.6</ele>
      </trkpt>
      <trkpt lat="43.56175" lon="5.2607">
        <ele>138</ele>
      </trkpt>
      <trkpt lat="43.56195" lon="5.26131">
        <ele>140.2</ele>
      </trkpt>
      <trkpt lat="43.56191" lon="5.26153">
        <ele>139.1</ele>
      </trkpt>
      <trkpt lat="43.56187" lon="5.26191">
        <ele>138</ele>
      </trkpt>
      <trkpt lat="43.56192" lon="5.26234">
        <ele>138</ele>
      </trkpt>
      <trkpt lat="43.56192" lon="5.26285">
        <ele>139.3</ele>
      </trkpt>
      <trkpt lat="43.56186" lon="5.26337">
        <ele>141</ele>
      </trkpt>
      <trkpt lat="43.56176" lon="5.26398">
        <ele>142.3</ele>
      </trkpt>
    </trkseg>
  </trk>
</gpx>